<?xml version="1.0" encoding="UTF-8" standalone="no" ?>
<gpx xmlns="http://www.topografix.com/GPX/1/1" xmlns:xsi="http://www.w3.org/2001/XMLSchema-instance" xsi:schemaLocation="http://www.topografix.com/GPX/1/1 http://www.topografix.com/GPX/1/1/gpx.xsd" version="1.1" creator="VisuGPX - https://www.visugpx.com">
  <metadata>
    <name>Trace Gravienne avec départ de La Mothe</name>
  </metadata>
  <trk>
    <name><![CDATA[Trace Gravienne avec départ de La Mothe_6]]></name>
    <trkseg>
      <trkpt lat="46.58194" lon="0.34498">
        <ele>119.49</ele>
        <time>2023-06-23T15:22:24.288Z</time>
      </trkpt>
      <trkpt lat="46.58181" lon="0.34532">
        <ele>119.23</ele>
        <time>2023-06-23T15:23:35.565Z</time>
      </trkpt>
      <trkpt lat="46.56363" lon="0.35174">
        <ele>122.62</ele>
        <time>2023-06-07T19:10:45.000Z</time>
      </trkpt>
      <trkpt lat="46.56357" lon="0.3516">
        <ele>122.63</ele>
        <time>2023-06-07T19:10:45.002Z</time>
      </trkpt>
      <trkpt lat="46.5635" lon="0.35143">
        <ele>122.61</ele>
        <time>2023-06-07T19:10:45.006Z</time>
      </trkpt>
      <trkpt lat="46.56343" lon="0.35114">
        <ele>122.59</ele>
        <time>2023-06-07T19:10:45.013Z</time>
      </trkpt>
      <trkpt lat="46.56341" lon="0.35105">
        <ele>122.56</ele>
        <time>2023-06-07T19:10:45.021Z</time>
      </trkpt>
      <trkpt lat="46.56338" lon="0.35089">
        <ele>122.51</ele>
        <time>2023-06-07T19:10:45.031Z</time>
      </trkpt>
      <trkpt lat="46.56332" lon="0.35058">
        <ele>122.33</ele>
        <time>2023-06-07T19:10:45.045Z</time>
      </trkpt>
      <trkpt lat="46.56331" lon="0.35052">
        <ele>122.31</ele>
        <time>2023-06-07T19:10:45.059Z</time>
      </trkpt>
      <trkpt lat="46.56323" lon="0.34996">
        <ele>121.96</ele>
        <time>2023-06-07T19:10:45.080Z</time>
      </trkpt>
      <trkpt lat="46.56323" lon="0.34996">
        <ele>121.96</ele>
        <time>2023-06-07T19:10:45.101Z</time>
      </trkpt>
      <trkpt lat="46.56313" lon="0.34973">
        <ele>121.85</ele>
        <time>2023-06-07T19:10:45.125Z</time>
      </trkpt>
      <trkpt lat="46.56308" lon="0.34957">
        <ele>121.79</ele>
        <time>2023-06-07T19:10:45.151Z</time>
      </trkpt>
      <trkpt lat="46.563" lon="0.34934">
        <ele>121.77</ele>
        <time>2023-06-07T19:10:45.180Z</time>
      </trkpt>
      <trkpt lat="46.56292" lon="0.34911">
        <ele>121.79</ele>
        <time>2023-06-07T19:10:45.212Z</time>
      </trkpt>
      <trkpt lat="46.56274" lon="0.34859">
        <ele>121.96</ele>
        <time>2023-06-07T19:10:45.250Z</time>
      </trkpt>
      <trkpt lat="46.56262" lon="0.34824">
        <ele>122.12</ele>
        <time>2023-06-07T19:10:45.292Z</time>
      </trkpt>
      <trkpt lat="46.56256" lon="0.34806">
        <ele>122.18</ele>
        <time>2023-06-07T19:10:45.336Z</time>
      </trkpt>
      <trkpt lat="46.56256" lon="0.34806">
        <ele>122.18</ele>
        <time>2023-06-07T19:10:45.380Z</time>
      </trkpt>
      <trkpt lat="46.56247" lon="0.34788">
        <ele>122.18</ele>
        <time>2023-06-07T19:10:45.427Z</time>
      </trkpt>
      <trkpt lat="46.56225" lon="0.3476">
        <ele>122.2</ele>
        <time>2023-06-07T19:10:45.479Z</time>
      </trkpt>
      <trkpt lat="46.56225" lon="0.3476">
        <ele>122.2</ele>
        <time>2023-06-07T19:10:45.531Z</time>
      </trkpt>
      <trkpt lat="46.56198" lon="0.34739">
        <ele>122.37</ele>
        <time>2023-06-07T19:10:45.587Z</time>
      </trkpt>
      <trkpt lat="46.56179" lon="0.34724">
        <ele>122.52</ele>
        <time>2023-06-07T19:10:45.647Z</time>
      </trkpt>
      <trkpt lat="46.56171" lon="0.34718">
        <ele>122.61</ele>
        <time>2023-06-07T19:10:45.708Z</time>
      </trkpt>
      <trkpt lat="46.56163" lon="0.34712">
        <ele>122.74</ele>
        <time>2023-06-07T19:10:45.771Z</time>
      </trkpt>
      <trkpt lat="46.56144" lon="0.34697">
        <ele>123.13</ele>
        <time>2023-06-07T19:10:45.837Z</time>
      </trkpt>
      <trkpt lat="46.56117" lon="0.34676">
        <ele>123.62</ele>
        <time>2023-06-07T19:10:45.908Z</time>
      </trkpt>
      <trkpt lat="46.56109" lon="0.3467">
        <ele>123.74</ele>
        <time>2023-06-07T19:10:45.981Z</time>
      </trkpt>
      <trkpt lat="46.5608" lon="0.34653">
        <ele>124.2</ele>
        <time>2023-06-07T19:10:46.059Z</time>
      </trkpt>
      <trkpt lat="46.5608" lon="0.34653">
        <ele>124.2</ele>
        <time>2023-06-07T19:10:46.137Z</time>
      </trkpt>
      <trkpt lat="46.56067" lon="0.34648">
        <ele>124.34</ele>
        <time>2023-06-07T19:10:46.217Z</time>
      </trkpt>
      <trkpt lat="46.56054" lon="0.34647">
        <ele>124.48</ele>
        <time>2023-06-07T19:10:46.299Z</time>
      </trkpt>
      <trkpt lat="46.56041" lon="0.34645">
        <ele>124.57</ele>
        <time>2023-06-07T19:10:46.383Z</time>
      </trkpt>
      <trkpt lat="46.56027" lon="0.34643">
        <ele>124.61</ele>
        <time>2023-06-07T19:10:46.469Z</time>
      </trkpt>
      <trkpt lat="46.56006" lon="0.34641">
        <ele>124.62</ele>
        <time>2023-06-07T19:10:46.559Z</time>
      </trkpt>
      <trkpt lat="46.56005" lon="0.34641">
        <ele>124.62</ele>
        <time>2023-06-07T19:10:46.649Z</time>
      </trkpt>
      <trkpt lat="46.55992" lon="0.34638">
        <ele>124.57</ele>
        <time>2023-06-07T19:10:46.741Z</time>
      </trkpt>
      <trkpt lat="46.5598" lon="0.34635">
        <ele>124.47</ele>
        <time>2023-06-07T19:10:46.835Z</time>
      </trkpt>
      <trkpt lat="46.55966" lon="0.3463">
        <ele>124.36</ele>
        <time>2023-06-07T19:10:46.931Z</time>
      </trkpt>
      <trkpt lat="46.55914" lon="0.3461">
        <ele>124.12</ele>
        <time>2023-06-07T19:10:47.036Z</time>
      </trkpt>
      <trkpt lat="46.55889" lon="0.346">
        <ele>123.96</ele>
        <time>2023-06-07T19:10:47.145Z</time>
      </trkpt>
      <trkpt lat="46.55889" lon="0.346">
        <ele>123.96</ele>
        <time>2023-06-07T19:10:47.254Z</time>
      </trkpt>
      <trkpt lat="46.55892" lon="0.34574">
        <ele>123.68</ele>
        <time>2023-06-07T19:10:47.366Z</time>
      </trkpt>
      <trkpt lat="46.55893" lon="0.34562">
        <ele>123.59</ele>
        <time>2023-06-07T19:10:47.479Z</time>
      </trkpt>
      <trkpt lat="46.55895" lon="0.34549">
        <ele>123.53</ele>
        <time>2023-06-07T19:10:47.594Z</time>
      </trkpt>
      <trkpt lat="46.55898" lon="0.34524">
        <ele>123.47</ele>
        <time>2023-06-07T19:10:47.711Z</time>
      </trkpt>
      <trkpt lat="46.55906" lon="0.34449">
        <ele>123.41</ele>
        <time>2023-06-07T19:10:47.837Z</time>
      </trkpt>
      <trkpt lat="46.55906" lon="0.34448">
        <ele>123.41</ele>
        <time>2023-06-07T19:10:47.963Z</time>
      </trkpt>
      <trkpt lat="46.55908" lon="0.34429">
        <ele>123.17</ele>
        <time>2023-06-07T19:10:48.091Z</time>
      </trkpt>
      <trkpt lat="46.55911" lon="0.3439">
        <ele>122.65</ele>
        <time>2023-06-07T19:10:48.223Z</time>
      </trkpt>
      <trkpt lat="46.55914" lon="0.34345">
        <ele>122.14</ele>
        <time>2023-06-07T19:10:48.360Z</time>
      </trkpt>
      <trkpt lat="46.55917" lon="0.34308">
        <ele>121.68</ele>
        <time>2023-06-07T19:10:48.501Z</time>
      </trkpt>
      <trkpt lat="46.55917" lon="0.34308">
        <ele>121.68</ele>
        <time>2023-06-07T19:10:48.642Z</time>
      </trkpt>
      <trkpt lat="46.55919" lon="0.34296">
        <ele>121.58</ele>
        <time>2023-06-07T19:10:48.785Z</time>
      </trkpt>
      <trkpt lat="46.55923" lon="0.34279">
        <ele>121.39</ele>
        <time>2023-06-07T19:10:48.930Z</time>
      </trkpt>
      <trkpt lat="46.55925" lon="0.3427">
        <ele>121.25</ele>
        <time>2023-06-07T19:10:49.076Z</time>
      </trkpt>
      <trkpt lat="46.55924" lon="0.3427">
        <ele>121.25</ele>
        <time>2023-06-07T19:10:49.222Z</time>
      </trkpt>
      <trkpt lat="46.55855" lon="0.34257">
        <ele>121.85</ele>
        <time>2023-06-07T19:10:49.379Z</time>
      </trkpt>
      <trkpt lat="46.55821" lon="0.3425">
        <ele>122.16</ele>
        <time>2023-06-07T19:10:49.542Z</time>
      </trkpt>
      <trkpt lat="46.55789" lon="0.34244">
        <ele>122.38</ele>
        <time>2023-06-07T19:10:49.710Z</time>
      </trkpt>
      <trkpt lat="46.55754" lon="0.34238">
        <ele>122.52</ele>
        <time>2023-06-07T19:10:49.883Z</time>
      </trkpt>
      <trkpt lat="46.55735" lon="0.34234">
        <ele>122.55</ele>
        <time>2023-06-07T19:10:50.059Z</time>
      </trkpt>
      <trkpt lat="46.55728" lon="0.34233">
        <ele>122.57</ele>
        <time>2023-06-07T19:10:50.237Z</time>
      </trkpt>
      <trkpt lat="46.5572" lon="0.34235">
        <ele>122.59</ele>
        <time>2023-06-07T19:10:50.416Z</time>
      </trkpt>
      <trkpt lat="46.55719" lon="0.34235">
        <ele>122.6</ele>
        <time>2023-06-07T19:10:50.595Z</time>
      </trkpt>
      <trkpt lat="46.55702" lon="0.34235">
        <ele>122.62</ele>
        <time>2023-06-07T19:10:50.777Z</time>
      </trkpt>
      <trkpt lat="46.55695" lon="0.3423">
        <ele>122.63</ele>
        <time>2023-06-07T19:10:50.960Z</time>
      </trkpt>
      <trkpt lat="46.55691" lon="0.34231">
        <ele>122.64</ele>
        <time>2023-06-07T19:10:51.144Z</time>
      </trkpt>
      <trkpt lat="46.55674" lon="0.34225">
        <ele>122.67</ele>
        <time>2023-06-07T19:10:51.330Z</time>
      </trkpt>
      <trkpt lat="46.55674" lon="0.34225">
        <ele>122.67</ele>
        <time>2023-06-07T19:10:51.517Z</time>
      </trkpt>
      <trkpt lat="46.55667" lon="0.34218">
        <ele>122.59</ele>
        <time>2023-06-07T19:10:51.705Z</time>
      </trkpt>
      <trkpt lat="46.55667" lon="0.34218">
        <ele>122.59</ele>
        <time>2023-06-07T19:10:51.893Z</time>
      </trkpt>
      <trkpt lat="46.55638" lon="0.34212">
        <ele>122.59</ele>
        <time>2023-06-07T19:10:52.086Z</time>
      </trkpt>
      <trkpt lat="46.55621" lon="0.34209">
        <ele>122.59</ele>
        <time>2023-06-07T19:10:52.281Z</time>
      </trkpt>
      <trkpt lat="46.55612" lon="0.34208">
        <ele>122.57</ele>
        <time>2023-06-07T19:10:52.478Z</time>
      </trkpt>
      <trkpt lat="46.55604" lon="0.34207">
        <ele>122.53</ele>
        <time>2023-06-07T19:10:52.676Z</time>
      </trkpt>
      <trkpt lat="46.55603" lon="0.34207">
        <ele>122.53</ele>
        <time>2023-06-07T19:10:52.874Z</time>
      </trkpt>
      <trkpt lat="46.55581" lon="0.3421">
        <ele>122.37</ele>
        <time>2023-06-07T19:10:53.076Z</time>
      </trkpt>
      <trkpt lat="46.55528" lon="0.34217">
        <ele>121.88</ele>
        <time>2023-06-07T19:10:53.286Z</time>
      </trkpt>
      <trkpt lat="46.55506" lon="0.34219">
        <ele>121.57</ele>
        <time>2023-06-07T19:10:53.500Z</time>
      </trkpt>
      <trkpt lat="46.55497" lon="0.3422">
        <ele>121.42</ele>
        <time>2023-06-07T19:10:53.715Z</time>
      </trkpt>
      <trkpt lat="46.55489" lon="0.34222">
        <ele>121.22</ele>
        <time>2023-06-07T19:10:53.932Z</time>
      </trkpt>
      <trkpt lat="46.55484" lon="0.34222">
        <ele>121.1</ele>
        <time>2023-06-07T19:10:54.149Z</time>
      </trkpt>
      <trkpt lat="46.55475" lon="0.34223">
        <ele>120.8</ele>
        <time>2023-06-07T19:10:54.368Z</time>
      </trkpt>
      <trkpt lat="46.55469" lon="0.34224">
        <ele>120.54</ele>
        <time>2023-06-07T19:10:54.588Z</time>
      </trkpt>
      <trkpt lat="46.55466" lon="0.34224">
        <ele>120.45</ele>
        <time>2023-06-07T19:10:54.808Z</time>
      </trkpt>
      <trkpt lat="46.55462" lon="0.34223">
        <ele>120.24</ele>
        <time>2023-06-07T19:10:55.029Z</time>
      </trkpt>
      <trkpt lat="46.55453" lon="0.34222">
        <ele>119.77</ele>
        <time>2023-06-07T19:10:55.251Z</time>
      </trkpt>
      <trkpt lat="46.55453" lon="0.34222">
        <ele>119.77</ele>
        <time>2023-06-07T19:10:55.473Z</time>
      </trkpt>
      <trkpt lat="46.5542" lon="0.34214">
        <ele>117.73</ele>
        <time>2023-06-07T19:10:55.701Z</time>
      </trkpt>
      <trkpt lat="46.55411" lon="0.34211">
        <ele>117.25</ele>
        <time>2023-06-07T19:10:55.930Z</time>
      </trkpt>
      <trkpt lat="46.55403" lon="0.34209">
        <ele>116.81</ele>
        <time>2023-06-07T19:10:56.160Z</time>
      </trkpt>
      <trkpt lat="46.55399" lon="0.34208">
        <ele>116.78</ele>
        <time>2023-06-07T19:10:56.391Z</time>
      </trkpt>
      <trkpt lat="46.55387" lon="0.34205">
        <ele>115.84</ele>
        <time>2023-06-07T19:10:56.624Z</time>
      </trkpt>
      <trkpt lat="46.55346" lon="0.34195">
        <ele>112.55</ele>
        <time>2023-06-07T19:10:56.864Z</time>
      </trkpt>
      <trkpt lat="46.55307" lon="0.34185">
        <ele>109.91</ele>
        <time>2023-06-07T19:10:57.110Z</time>
      </trkpt>
      <trkpt lat="46.55298" lon="0.34182">
        <ele>109.3</ele>
        <time>2023-06-07T19:10:57.357Z</time>
      </trkpt>
      <trkpt lat="46.55289" lon="0.3418">
        <ele>108.65</ele>
        <time>2023-06-07T19:10:57.606Z</time>
      </trkpt>
      <trkpt lat="46.55268" lon="0.34175">
        <ele>106.97</ele>
        <time>2023-06-07T19:10:57.858Z</time>
      </trkpt>
      <trkpt lat="46.55259" lon="0.34173">
        <ele>106.34</ele>
        <time>2023-06-07T19:10:58.112Z</time>
      </trkpt>
      <trkpt lat="46.55246" lon="0.34169">
        <ele>105.45</ele>
        <time>2023-06-07T19:10:58.368Z</time>
      </trkpt>
      <trkpt lat="46.55198" lon="0.34157">
        <ele>102.26</ele>
        <time>2023-06-07T19:10:58.632Z</time>
      </trkpt>
      <trkpt lat="46.55198" lon="0.34157">
        <ele>102.26</ele>
        <time>2023-06-07T19:10:58.896Z</time>
      </trkpt>
      <trkpt lat="46.5518" lon="0.34149">
        <ele>100.76</ele>
        <time>2023-06-07T19:10:59.163Z</time>
      </trkpt>
      <trkpt lat="46.55137" lon="0.34137">
        <ele>97.33</ele>
        <time>2023-06-07T19:10:59.437Z</time>
      </trkpt>
      <trkpt lat="46.55134" lon="0.34137">
        <ele>97.11</ele>
        <time>2023-06-07T19:10:59.711Z</time>
      </trkpt>
      <trkpt lat="46.55121" lon="0.34135">
        <ele>96.02</ele>
        <time>2023-06-07T19:10:59.987Z</time>
      </trkpt>
      <trkpt lat="46.5509" lon="0.34131">
        <ele>93.31</ele>
        <time>2023-06-07T19:11:00.268Z</time>
      </trkpt>
      <trkpt lat="46.55077" lon="0.3413">
        <ele>92.11</ele>
        <time>2023-06-07T19:11:00.551Z</time>
      </trkpt>
      <trkpt lat="46.55072" lon="0.34129">
        <ele>91.6</ele>
        <time>2023-06-07T19:11:00.835Z</time>
      </trkpt>
      <trkpt lat="46.55051" lon="0.34132">
        <ele>89.59</ele>
        <time>2023-06-07T19:11:01.123Z</time>
      </trkpt>
      <trkpt lat="46.55047" lon="0.34132">
        <ele>89.19</ele>
        <time>2023-06-07T19:11:01.411Z</time>
      </trkpt>
      <trkpt lat="46.55038" lon="0.34132">
        <ele>88.3</ele>
        <time>2023-06-07T19:11:01.701Z</time>
      </trkpt>
      <trkpt lat="46.55032" lon="0.34132">
        <ele>87.84</ele>
        <time>2023-06-07T19:11:01.992Z</time>
      </trkpt>
      <trkpt lat="46.55027" lon="0.34129">
        <ele>87.39</ele>
        <time>2023-06-07T19:11:02.284Z</time>
      </trkpt>
      <trkpt lat="46.55023" lon="0.34126">
        <ele>87.06</ele>
        <time>2023-06-07T19:11:02.576Z</time>
      </trkpt>
      <trkpt lat="46.55016" lon="0.34122">
        <ele>86.35</ele>
        <time>2023-06-07T19:11:02.869Z</time>
      </trkpt>
      <trkpt lat="46.55016" lon="0.34122">
        <ele>86.35</ele>
        <time>2023-06-07T19:11:03.162Z</time>
      </trkpt>
      <trkpt lat="46.55006" lon="0.34099">
        <ele>84.97</ele>
        <time>2023-06-07T19:11:03.458Z</time>
      </trkpt>
      <trkpt lat="46.55006" lon="0.34099">
        <ele>84.97</ele>
        <time>2023-06-07T19:11:03.754Z</time>
      </trkpt>
      <trkpt lat="46.55006" lon="0.3408">
        <ele>84.49</ele>
        <time>2023-06-07T19:11:04.052Z</time>
      </trkpt>
      <trkpt lat="46.55006" lon="0.3408">
        <ele>84.49</ele>
        <time>2023-06-07T19:11:04.350Z</time>
      </trkpt>
      <trkpt lat="46.55002" lon="0.34071">
        <ele>83.79</ele>
        <time>2023-06-07T19:11:04.650Z</time>
      </trkpt>
      <trkpt lat="46.5499" lon="0.3406">
        <ele>82.57</ele>
        <time>2023-06-07T19:11:04.952Z</time>
      </trkpt>
      <trkpt lat="46.5499" lon="0.3406">
        <ele>82.57</ele>
        <time>2023-06-07T19:11:05.254Z</time>
      </trkpt>
      <trkpt lat="46.54978" lon="0.34039">
        <ele>81.29</ele>
        <time>2023-06-07T19:11:05.559Z</time>
      </trkpt>
      <trkpt lat="46.54978" lon="0.34039">
        <ele>81.29</ele>
        <time>2023-06-07T19:11:05.864Z</time>
      </trkpt>
      <trkpt lat="46.54979" lon="0.34021">
        <ele>80.22</ele>
        <time>2023-06-07T19:11:06.171Z</time>
      </trkpt>
      <trkpt lat="46.54981" lon="0.3399">
        <ele>78.36</ele>
        <time>2023-06-07T19:11:06.481Z</time>
      </trkpt>
      <trkpt lat="46.54981" lon="0.3399">
        <ele>78.36</ele>
        <time>2023-06-07T19:11:06.791Z</time>
      </trkpt>
      <trkpt lat="46.54984" lon="0.33971">
        <ele>78</ele>
        <time>2023-06-07T19:11:07.103Z</time>
      </trkpt>
      <trkpt lat="46.54989" lon="0.33945">
        <ele>77.41</ele>
        <time>2023-06-07T19:11:07.418Z</time>
      </trkpt>
      <trkpt lat="46.54992" lon="0.33928">
        <ele>77.15</ele>
        <time>2023-06-07T19:11:07.735Z</time>
      </trkpt>
      <trkpt lat="46.54995" lon="0.33909">
        <ele>76.92</ele>
        <time>2023-06-07T19:11:08.055Z</time>
      </trkpt>
      <trkpt lat="46.54995" lon="0.33909">
        <ele>76.92</ele>
        <time>2023-06-07T19:11:08.375Z</time>
      </trkpt>
      <trkpt lat="46.54997" lon="0.33884">
        <ele>76.83</ele>
        <time>2023-06-07T19:11:08.697Z</time>
      </trkpt>
      <trkpt lat="46.54997" lon="0.33884">
        <ele>76.83</ele>
        <time>2023-06-07T19:11:09.019Z</time>
      </trkpt>
      <trkpt lat="46.54996" lon="0.33852">
        <ele>76.74</ele>
        <time>2023-06-07T19:11:09.345Z</time>
      </trkpt>
      <trkpt lat="46.54996" lon="0.33852">
        <ele>76.74</ele>
        <time>2023-06-07T19:11:09.671Z</time>
      </trkpt>
      <trkpt lat="46.54994" lon="0.33828">
        <ele>76.79</ele>
        <time>2023-06-07T19:11:10.000Z</time>
      </trkpt>
      <trkpt lat="46.54995" lon="0.33808">
        <ele>76.84</ele>
        <time>2023-06-07T19:11:10.331Z</time>
      </trkpt>
      <trkpt lat="46.54997" lon="0.33783">
        <ele>76.86</ele>
        <time>2023-06-07T19:11:10.665Z</time>
      </trkpt>
      <trkpt lat="46.54997" lon="0.33776">
        <ele>76.92</ele>
        <time>2023-06-07T19:11:10.999Z</time>
      </trkpt>
      <trkpt lat="46.54997" lon="0.33776">
        <ele>76.92</ele>
        <time>2023-06-07T19:11:11.333Z</time>
      </trkpt>
      <trkpt lat="46.54991" lon="0.33777">
        <ele>77.07</ele>
        <time>2023-06-07T19:11:11.668Z</time>
      </trkpt>
      <trkpt lat="46.54991" lon="0.33777">
        <ele>77.07</ele>
        <time>2023-06-07T19:11:12.003Z</time>
      </trkpt>
      <trkpt lat="46.54985" lon="0.33775">
        <ele>77.2</ele>
        <time>2023-06-07T19:11:12.339Z</time>
      </trkpt>
      <trkpt lat="46.54985" lon="0.33775">
        <ele>77.2</ele>
        <time>2023-06-07T19:11:12.675Z</time>
      </trkpt>
      <trkpt lat="46.54991" lon="0.33777">
        <ele>77.07</ele>
        <time>2023-06-07T19:11:13.012Z</time>
      </trkpt>
      <trkpt lat="46.54991" lon="0.33777">
        <ele>77.07</ele>
        <time>2023-06-07T19:11:13.349Z</time>
      </trkpt>
      <trkpt lat="46.54997" lon="0.33776">
        <ele>76.92</ele>
        <time>2023-06-07T19:11:13.687Z</time>
      </trkpt>
      <trkpt lat="46.54997" lon="0.33776">
        <ele>76.92</ele>
        <time>2023-06-07T19:11:14.025Z</time>
      </trkpt>
      <trkpt lat="46.55005" lon="0.33718">
        <ele>76.8</ele>
        <time>2023-06-07T19:11:14.370Z</time>
      </trkpt>
      <trkpt lat="46.55009" lon="0.33689">
        <ele>76.92</ele>
        <time>2023-06-07T19:11:14.718Z</time>
      </trkpt>
      <trkpt lat="46.5501" lon="0.33686">
        <ele>76.95</ele>
        <time>2023-06-07T19:11:15.066Z</time>
      </trkpt>
      <trkpt lat="46.55017" lon="0.33636">
        <ele>77.18</ele>
        <time>2023-06-07T19:11:15.420Z</time>
      </trkpt>
      <trkpt lat="46.55017" lon="0.33636">
        <ele>77.18</ele>
        <time>2023-06-07T19:11:15.774Z</time>
      </trkpt>
      <trkpt lat="46.54997" lon="0.33629">
        <ele>77.04</ele>
        <time>2023-06-07T19:11:16.131Z</time>
      </trkpt>
      <trkpt lat="46.54989" lon="0.33626">
        <ele>77.04</ele>
        <time>2023-06-07T19:11:16.490Z</time>
      </trkpt>
      <trkpt lat="46.5498" lon="0.33623">
        <ele>77.08</ele>
        <time>2023-06-07T19:11:16.850Z</time>
      </trkpt>
      <trkpt lat="46.5498" lon="0.33623">
        <ele>77.08</ele>
        <time>2023-06-07T19:11:17.210Z</time>
      </trkpt>
      <trkpt lat="46.5498" lon="0.33618">
        <ele>77.06</ele>
        <time>2023-06-07T19:11:17.571Z</time>
      </trkpt>
      <trkpt lat="46.54981" lon="0.33613">
        <ele>77.02</ele>
        <time>2023-06-07T19:11:17.932Z</time>
      </trkpt>
      <trkpt lat="46.54981" lon="0.33613">
        <ele>77.02</ele>
        <time>2023-06-07T19:11:18.293Z</time>
      </trkpt>
      <trkpt lat="46.54972" lon="0.33604">
        <ele>76.96</ele>
        <time>2023-06-07T19:11:18.656Z</time>
      </trkpt>
      <trkpt lat="46.54972" lon="0.33604">
        <ele>76.96</ele>
        <time>2023-06-07T19:11:19.019Z</time>
      </trkpt>
      <trkpt lat="46.54965" lon="0.33596">
        <ele>76.66</ele>
        <time>2023-06-07T19:11:19.383Z</time>
      </trkpt>
      <trkpt lat="46.54962" lon="0.33592">
        <ele>76.54</ele>
        <time>2023-06-07T19:11:19.748Z</time>
      </trkpt>
      <trkpt lat="46.54959" lon="0.33588">
        <ele>76.45</ele>
        <time>2023-06-07T19:11:20.114Z</time>
      </trkpt>
      <trkpt lat="46.54955" lon="0.33584">
        <ele>76.4</ele>
        <time>2023-06-07T19:11:20.480Z</time>
      </trkpt>
      <trkpt lat="46.54948" lon="0.33576">
        <ele>76.35</ele>
        <time>2023-06-07T19:11:20.848Z</time>
      </trkpt>
      <trkpt lat="46.54941" lon="0.33568">
        <ele>76.35</ele>
        <time>2023-06-07T19:11:21.217Z</time>
      </trkpt>
      <trkpt lat="46.54925" lon="0.33549">
        <ele>76.4</ele>
        <time>2023-06-07T19:11:21.590Z</time>
      </trkpt>
      <trkpt lat="46.54908" lon="0.33525">
        <ele>76.46</ele>
        <time>2023-06-07T19:11:21.966Z</time>
      </trkpt>
      <trkpt lat="46.54892" lon="0.33503">
        <ele>76.53</ele>
        <time>2023-06-07T19:11:22.346Z</time>
      </trkpt>
      <trkpt lat="46.54873" lon="0.33476">
        <ele>76.51</ele>
        <time>2023-06-07T19:11:22.730Z</time>
      </trkpt>
      <trkpt lat="46.54842" lon="0.3343">
        <ele>76.66</ele>
        <time>2023-06-07T19:11:23.121Z</time>
      </trkpt>
      <trkpt lat="46.54826" lon="0.33408">
        <ele>76.71</ele>
        <time>2023-06-07T19:11:23.516Z</time>
      </trkpt>
      <trkpt lat="46.54823" lon="0.33404">
        <ele>76.71</ele>
        <time>2023-06-07T19:11:23.912Z</time>
      </trkpt>
      <trkpt lat="46.54811" lon="0.33403">
        <ele>76.71</ele>
        <time>2023-06-07T19:11:24.309Z</time>
      </trkpt>
      <trkpt lat="46.54806" lon="0.33405">
        <ele>76.72</ele>
        <time>2023-06-07T19:11:24.707Z</time>
      </trkpt>
      <trkpt lat="46.54791" lon="0.33414">
        <ele>76.68</ele>
        <time>2023-06-07T19:11:25.108Z</time>
      </trkpt>
      <trkpt lat="46.5479" lon="0.33414">
        <ele>76.68</ele>
        <time>2023-06-07T19:11:25.509Z</time>
      </trkpt>
      <trkpt lat="46.54775" lon="0.33414">
        <ele>76.69</ele>
        <time>2023-06-07T19:11:25.912Z</time>
      </trkpt>
      <trkpt lat="46.54774" lon="0.33414">
        <ele>76.69</ele>
        <time>2023-06-07T19:11:26.316Z</time>
      </trkpt>
      <trkpt lat="46.54759" lon="0.33403">
        <ele>76.83</ele>
        <time>2023-06-07T19:11:26.722Z</time>
      </trkpt>
      <trkpt lat="46.54751" lon="0.33397">
        <ele>76.86</ele>
        <time>2023-06-07T19:11:27.130Z</time>
      </trkpt>
      <trkpt lat="46.54743" lon="0.33391">
        <ele>76.84</ele>
        <time>2023-06-07T19:11:27.539Z</time>
      </trkpt>
      <trkpt lat="46.5472" lon="0.33372">
        <ele>76.82</ele>
        <time>2023-06-07T19:11:27.952Z</time>
      </trkpt>
      <trkpt lat="46.547" lon="0.33356">
        <ele>76.84</ele>
        <time>2023-06-07T19:11:28.369Z</time>
      </trkpt>
      <trkpt lat="46.54686" lon="0.33345">
        <ele>76.81</ele>
        <time>2023-06-07T19:11:28.789Z</time>
      </trkpt>
      <trkpt lat="46.5468" lon="0.33342">
        <ele>76.81</ele>
        <time>2023-06-07T19:11:29.210Z</time>
      </trkpt>
      <trkpt lat="46.54642" lon="0.33323">
        <ele>76.85</ele>
        <time>2023-06-07T19:11:29.637Z</time>
      </trkpt>
      <trkpt lat="46.54641" lon="0.33322">
        <ele>76.85</ele>
        <time>2023-06-07T19:11:30.064Z</time>
      </trkpt>
      <trkpt lat="46.54634" lon="0.33317">
        <ele>76.85</ele>
        <time>2023-06-07T19:11:30.492Z</time>
      </trkpt>
      <trkpt lat="46.54618" lon="0.33289">
        <ele>76.85</ele>
        <time>2023-06-07T19:11:30.925Z</time>
      </trkpt>
      <trkpt lat="46.54601" lon="0.33259">
        <ele>76.77</ele>
        <time>2023-06-07T19:11:31.362Z</time>
      </trkpt>
      <trkpt lat="46.5459" lon="0.33239">
        <ele>76.78</ele>
        <time>2023-06-07T19:11:31.802Z</time>
      </trkpt>
      <trkpt lat="46.54583" lon="0.33227">
        <ele>76.77</ele>
        <time>2023-06-07T19:11:32.243Z</time>
      </trkpt>
      <trkpt lat="46.5457" lon="0.33212">
        <ele>76.76</ele>
        <time>2023-06-07T19:11:32.687Z</time>
      </trkpt>
      <trkpt lat="46.54564" lon="0.33205">
        <ele>76.72</ele>
        <time>2023-06-07T19:11:33.132Z</time>
      </trkpt>
      <trkpt lat="46.54546" lon="0.33174">
        <ele>76.61</ele>
        <time>2023-06-07T19:11:33.582Z</time>
      </trkpt>
      <trkpt lat="46.54537" lon="0.33159">
        <ele>76.59</ele>
        <time>2023-06-07T19:11:34.034Z</time>
      </trkpt>
      <trkpt lat="46.54532" lon="0.33149">
        <ele>76.6</ele>
        <time>2023-06-07T19:11:34.487Z</time>
      </trkpt>
      <trkpt lat="46.54514" lon="0.3312">
        <ele>76.71</ele>
        <time>2023-06-07T19:11:34.945Z</time>
      </trkpt>
      <trkpt lat="46.54497" lon="0.3309">
        <ele>76.89</ele>
        <time>2023-06-07T19:11:35.407Z</time>
      </trkpt>
      <trkpt lat="46.54491" lon="0.3308">
        <ele>76.91</ele>
        <time>2023-06-07T19:11:35.870Z</time>
      </trkpt>
      <trkpt lat="46.54488" lon="0.33075">
        <ele>76.9</ele>
        <time>2023-06-07T19:11:36.334Z</time>
      </trkpt>
      <trkpt lat="46.54477" lon="0.33055">
        <ele>76.78</ele>
        <time>2023-06-07T19:11:36.801Z</time>
      </trkpt>
      <trkpt lat="46.54468" lon="0.3304">
        <ele>76.72</ele>
        <time>2023-06-07T19:11:37.270Z</time>
      </trkpt>
      <trkpt lat="46.54463" lon="0.3303">
        <ele>76.69</ele>
        <time>2023-06-07T19:11:37.740Z</time>
      </trkpt>
      <trkpt lat="46.54453" lon="0.33014">
        <ele>76.67</ele>
        <time>2023-06-07T19:11:38.213Z</time>
      </trkpt>
      <trkpt lat="46.54447" lon="0.33007">
        <ele>76.66</ele>
        <time>2023-06-07T19:11:38.687Z</time>
      </trkpt>
      <trkpt lat="46.54437" lon="0.32994">
        <ele>76.67</ele>
        <time>2023-06-07T19:11:39.163Z</time>
      </trkpt>
      <trkpt lat="46.54418" lon="0.32968">
        <ele>76.78</ele>
        <time>2023-06-07T19:11:39.643Z</time>
      </trkpt>
      <trkpt lat="46.54408" lon="0.32955">
        <ele>76.79</ele>
        <time>2023-06-07T19:11:40.126Z</time>
      </trkpt>
      <trkpt lat="46.54391" lon="0.32933">
        <ele>76.76</ele>
        <time>2023-06-07T19:11:40.612Z</time>
      </trkpt>
      <trkpt lat="46.54385" lon="0.32925">
        <ele>76.73</ele>
        <time>2023-06-07T19:11:41.099Z</time>
      </trkpt>
      <trkpt lat="46.54378" lon="0.32907">
        <ele>76.69</ele>
        <time>2023-06-07T19:11:41.589Z</time>
      </trkpt>
      <trkpt lat="46.54376" lon="0.32903">
        <ele>76.69</ele>
        <time>2023-06-07T19:11:42.079Z</time>
      </trkpt>
      <trkpt lat="46.54366" lon="0.32888">
        <ele>76.73</ele>
        <time>2023-06-07T19:11:42.572Z</time>
      </trkpt>
      <trkpt lat="46.54354" lon="0.32871">
        <ele>76.73</ele>
        <time>2023-06-07T19:11:43.067Z</time>
      </trkpt>
      <trkpt lat="46.54349" lon="0.32866">
        <ele>76.74</ele>
        <time>2023-06-07T19:11:43.563Z</time>
      </trkpt>
      <trkpt lat="46.54331" lon="0.32847">
        <ele>76.86</ele>
        <time>2023-06-07T19:11:44.063Z</time>
      </trkpt>
      <trkpt lat="46.54331" lon="0.32847">
        <ele>76.86</ele>
        <time>2023-06-07T19:11:44.563Z</time>
      </trkpt>
      <trkpt lat="46.54322" lon="0.32845">
        <ele>76.89</ele>
        <time>2023-06-07T19:11:45.064Z</time>
      </trkpt>
      <trkpt lat="46.54317" lon="0.32844">
        <ele>76.89</ele>
        <time>2023-06-07T19:11:45.566Z</time>
      </trkpt>
      <trkpt lat="46.54288" lon="0.32856">
        <ele>76.89</ele>
        <time>2023-06-07T19:11:46.073Z</time>
      </trkpt>
      <trkpt lat="46.54272" lon="0.32863">
        <ele>76.91</ele>
        <time>2023-06-07T19:11:46.583Z</time>
      </trkpt>
      <trkpt lat="46.54271" lon="0.32863">
        <ele>76.92</ele>
        <time>2023-06-07T19:11:47.093Z</time>
      </trkpt>
      <trkpt lat="46.54242" lon="0.32865">
        <ele>77</ele>
        <time>2023-06-07T19:11:47.607Z</time>
      </trkpt>
      <trkpt lat="46.54235" lon="0.32863">
        <ele>77.02</ele>
        <time>2023-06-07T19:11:48.123Z</time>
      </trkpt>
      <trkpt lat="46.54208" lon="0.32856">
        <ele>77.02</ele>
        <time>2023-06-07T19:11:48.643Z</time>
      </trkpt>
      <trkpt lat="46.54208" lon="0.32856">
        <ele>77.02</ele>
        <time>2023-06-07T19:11:49.163Z</time>
      </trkpt>
      <trkpt lat="46.54178" lon="0.32859">
        <ele>77.12</ele>
        <time>2023-06-07T19:11:49.688Z</time>
      </trkpt>
      <trkpt lat="46.54175" lon="0.32859">
        <ele>77.11</ele>
        <time>2023-06-07T19:11:50.213Z</time>
      </trkpt>
      <trkpt lat="46.54163" lon="0.32867">
        <ele>77.07</ele>
        <time>2023-06-07T19:11:50.740Z</time>
      </trkpt>
      <trkpt lat="46.54152" lon="0.32859">
        <ele>77.05</ele>
        <time>2023-06-07T19:11:51.269Z</time>
      </trkpt>
      <trkpt lat="46.54149" lon="0.32857">
        <ele>77.05</ele>
        <time>2023-06-07T19:11:51.799Z</time>
      </trkpt>
      <trkpt lat="46.54138" lon="0.32858">
        <ele>77.07</ele>
        <time>2023-06-07T19:11:52.331Z</time>
      </trkpt>
      <trkpt lat="46.54133" lon="0.32866">
        <ele>77.08</ele>
        <time>2023-06-07T19:11:52.864Z</time>
      </trkpt>
      <trkpt lat="46.54131" lon="0.32868">
        <ele>77.07</ele>
        <time>2023-06-07T19:11:53.397Z</time>
      </trkpt>
      <trkpt lat="46.54124" lon="0.32865">
        <ele>77.04</ele>
        <time>2023-06-07T19:11:53.931Z</time>
      </trkpt>
      <trkpt lat="46.54122" lon="0.32869">
        <ele>77.03</ele>
        <time>2023-06-07T19:11:54.466Z</time>
      </trkpt>
      <trkpt lat="46.54115" lon="0.32885">
        <ele>77.01</ele>
        <time>2023-06-07T19:11:55.003Z</time>
      </trkpt>
      <trkpt lat="46.54113" lon="0.3289">
        <ele>77.01</ele>
        <time>2023-06-07T19:11:55.541Z</time>
      </trkpt>
      <trkpt lat="46.54102" lon="0.32902">
        <ele>77.02</ele>
        <time>2023-06-07T19:11:56.081Z</time>
      </trkpt>
      <trkpt lat="46.54085" lon="0.32922">
        <ele>77.08</ele>
        <time>2023-06-07T19:11:56.624Z</time>
      </trkpt>
      <trkpt lat="46.54078" lon="0.3293">
        <ele>77.09</ele>
        <time>2023-06-07T19:11:57.169Z</time>
      </trkpt>
      <trkpt lat="46.54073" lon="0.32936">
        <ele>77.08</ele>
        <time>2023-06-07T19:11:57.715Z</time>
      </trkpt>
      <trkpt lat="46.54044" lon="0.32971">
        <ele>77.06</ele>
        <time>2023-06-07T19:11:58.267Z</time>
      </trkpt>
      <trkpt lat="46.54038" lon="0.32979">
        <ele>77.09</ele>
        <time>2023-06-07T19:11:58.820Z</time>
      </trkpt>
      <trkpt lat="46.54034" lon="0.32984">
        <ele>77.12</ele>
        <time>2023-06-07T19:11:59.374Z</time>
      </trkpt>
      <trkpt lat="46.54028" lon="0.32992">
        <ele>77.19</ele>
        <time>2023-06-07T19:11:59.929Z</time>
      </trkpt>
      <trkpt lat="46.54022" lon="0.33002">
        <ele>77.24</ele>
        <time>2023-06-07T19:12:00.486Z</time>
      </trkpt>
      <trkpt lat="46.54019" lon="0.33006">
        <ele>77.24</ele>
        <time>2023-06-07T19:12:01.043Z</time>
      </trkpt>
      <trkpt lat="46.54007" lon="0.33028">
        <ele>77.28</ele>
        <time>2023-06-07T19:12:01.603Z</time>
      </trkpt>
      <trkpt lat="46.54006" lon="0.3303">
        <ele>77.34</ele>
        <time>2023-06-07T19:12:02.164Z</time>
      </trkpt>
      <trkpt lat="46.54014" lon="0.33041">
        <ele>77.7</ele>
        <time>2023-06-07T19:12:02.727Z</time>
      </trkpt>
      <trkpt lat="46.54018" lon="0.33045">
        <ele>77.88</ele>
        <time>2023-06-07T19:12:03.290Z</time>
      </trkpt>
      <trkpt lat="46.54021" lon="0.3305">
        <ele>78.1</ele>
        <time>2023-06-07T19:12:03.854Z</time>
      </trkpt>
      <trkpt lat="46.54024" lon="0.33054">
        <ele>78.36</ele>
        <time>2023-06-07T19:12:04.419Z</time>
      </trkpt>
      <trkpt lat="46.54028" lon="0.33058">
        <ele>78.66</ele>
        <time>2023-06-07T19:12:04.984Z</time>
      </trkpt>
      <trkpt lat="46.54031" lon="0.33063">
        <ele>78.99</ele>
        <time>2023-06-07T19:12:05.550Z</time>
      </trkpt>
      <trkpt lat="46.54035" lon="0.33067">
        <ele>79.35</ele>
        <time>2023-06-07T19:12:06.117Z</time>
      </trkpt>
      <trkpt lat="46.54037" lon="0.3307">
        <ele>79.63</ele>
        <time>2023-06-07T19:12:06.684Z</time>
      </trkpt>
      <trkpt lat="46.5404" lon="0.33077">
        <ele>80.15</ele>
        <time>2023-06-07T19:12:07.252Z</time>
      </trkpt>
      <trkpt lat="46.54042" lon="0.33084">
        <ele>80.62</ele>
        <time>2023-06-07T19:12:07.821Z</time>
      </trkpt>
      <trkpt lat="46.54044" lon="0.33096">
        <ele>81.39</ele>
        <time>2023-06-07T19:12:08.392Z</time>
      </trkpt>
      <trkpt lat="46.54044" lon="0.33099">
        <ele>81.48</ele>
        <time>2023-06-07T19:12:08.963Z</time>
      </trkpt>
      <trkpt lat="46.5404" lon="0.33106">
        <ele>81.76</ele>
        <time>2023-06-07T19:12:09.535Z</time>
      </trkpt>
      <trkpt lat="46.54036" lon="0.33112">
        <ele>82.03</ele>
        <time>2023-06-07T19:12:10.108Z</time>
      </trkpt>
      <trkpt lat="46.54034" lon="0.33117">
        <ele>82.22</ele>
        <time>2023-06-07T19:12:10.681Z</time>
      </trkpt>
      <trkpt lat="46.54032" lon="0.33123">
        <ele>82.49</ele>
        <time>2023-06-07T19:12:11.255Z</time>
      </trkpt>
      <trkpt lat="46.54031" lon="0.33128">
        <ele>82.79</ele>
        <time>2023-06-07T19:12:11.830Z</time>
      </trkpt>
      <trkpt lat="46.5403" lon="0.3313">
        <ele>82.87</ele>
        <time>2023-06-07T19:12:12.405Z</time>
      </trkpt>
      <trkpt lat="46.54027" lon="0.33152">
        <ele>83.94</ele>
        <time>2023-06-07T19:12:12.982Z</time>
      </trkpt>
      <trkpt lat="46.54027" lon="0.33154">
        <ele>84.04</ele>
        <time>2023-06-07T19:12:13.560Z</time>
      </trkpt>
      <trkpt lat="46.54027" lon="0.33167">
        <ele>84.62</ele>
        <time>2023-06-07T19:12:14.139Z</time>
      </trkpt>
      <trkpt lat="46.54026" lon="0.3318">
        <ele>85.15</ele>
        <time>2023-06-07T19:12:14.720Z</time>
      </trkpt>
      <trkpt lat="46.54026" lon="0.33193">
        <ele>85.63</ele>
        <time>2023-06-07T19:12:15.302Z</time>
      </trkpt>
      <trkpt lat="46.54026" lon="0.33196">
        <ele>85.73</ele>
        <time>2023-06-07T19:12:15.884Z</time>
      </trkpt>
      <trkpt lat="46.54025" lon="0.33212">
        <ele>86.28</ele>
        <time>2023-06-07T19:12:16.468Z</time>
      </trkpt>
      <trkpt lat="46.54025" lon="0.33217">
        <ele>86.48</ele>
        <time>2023-06-07T19:12:17.053Z</time>
      </trkpt>
      <trkpt lat="46.54027" lon="0.33237">
        <ele>87.23</ele>
        <time>2023-06-07T19:12:17.640Z</time>
      </trkpt>
      <trkpt lat="46.54027" lon="0.33243">
        <ele>87.45</ele>
        <time>2023-06-07T19:12:18.228Z</time>
      </trkpt>
      <trkpt lat="46.54029" lon="0.33255">
        <ele>87.89</ele>
        <time>2023-06-07T19:12:18.817Z</time>
      </trkpt>
      <trkpt lat="46.5403" lon="0.33261">
        <ele>88.07</ele>
        <time>2023-06-07T19:12:19.407Z</time>
      </trkpt>
      <trkpt lat="46.54031" lon="0.33267">
        <ele>88.22</ele>
        <time>2023-06-07T19:12:19.997Z</time>
      </trkpt>
      <trkpt lat="46.54033" lon="0.3328">
        <ele>88.48</ele>
        <time>2023-06-07T19:12:20.589Z</time>
      </trkpt>
      <trkpt lat="46.54035" lon="0.33298">
        <ele>88.61</ele>
        <time>2023-06-07T19:12:21.183Z</time>
      </trkpt>
      <trkpt lat="46.54038" lon="0.33315">
        <ele>88.66</ele>
        <time>2023-06-07T19:12:21.779Z</time>
      </trkpt>
      <trkpt lat="46.54039" lon="0.3333">
        <ele>88.71</ele>
        <time>2023-06-07T19:12:22.376Z</time>
      </trkpt>
      <trkpt lat="46.54039" lon="0.3335">
        <ele>88.8</ele>
        <time>2023-06-07T19:12:22.976Z</time>
      </trkpt>
      <trkpt lat="46.5404" lon="0.33362">
        <ele>88.91</ele>
        <time>2023-06-07T19:12:23.577Z</time>
      </trkpt>
      <trkpt lat="46.5404" lon="0.33371">
        <ele>89</ele>
        <time>2023-06-07T19:12:24.179Z</time>
      </trkpt>
      <trkpt lat="46.54041" lon="0.33375">
        <ele>89.05</ele>
        <time>2023-06-07T19:12:24.781Z</time>
      </trkpt>
      <trkpt lat="46.54042" lon="0.33382">
        <ele>89.14</ele>
        <time>2023-06-07T19:12:25.384Z</time>
      </trkpt>
      <trkpt lat="46.54043" lon="0.33394">
        <ele>89.35</ele>
        <time>2023-06-07T19:12:25.989Z</time>
      </trkpt>
      <trkpt lat="46.54045" lon="0.33407">
        <ele>89.62</ele>
        <time>2023-06-07T19:12:26.595Z</time>
      </trkpt>
      <trkpt lat="46.54046" lon="0.33413">
        <ele>89.77</ele>
        <time>2023-06-07T19:12:27.202Z</time>
      </trkpt>
      <trkpt lat="46.54048" lon="0.33419">
        <ele>89.95</ele>
        <time>2023-06-07T19:12:27.809Z</time>
      </trkpt>
      <trkpt lat="46.54051" lon="0.33429">
        <ele>90.26</ele>
        <time>2023-06-07T19:12:28.418Z</time>
      </trkpt>
      <trkpt lat="46.54054" lon="0.33436">
        <ele>90.51</ele>
        <time>2023-06-07T19:12:29.028Z</time>
      </trkpt>
      <trkpt lat="46.5406" lon="0.33449">
        <ele>91</ele>
        <time>2023-06-07T19:12:29.639Z</time>
      </trkpt>
      <trkpt lat="46.54062" lon="0.33452">
        <ele>91.13</ele>
        <time>2023-06-07T19:12:30.251Z</time>
      </trkpt>
      <trkpt lat="46.54071" lon="0.33466">
        <ele>91.79</ele>
        <time>2023-06-07T19:12:30.865Z</time>
      </trkpt>
      <trkpt lat="46.54077" lon="0.33476">
        <ele>92.27</ele>
        <time>2023-06-07T19:12:31.480Z</time>
      </trkpt>
      <trkpt lat="46.54083" lon="0.33485">
        <ele>92.81</ele>
        <time>2023-06-07T19:12:32.097Z</time>
      </trkpt>
      <trkpt lat="46.54092" lon="0.33499">
        <ele>93.69</ele>
        <time>2023-06-07T19:12:32.716Z</time>
      </trkpt>
      <trkpt lat="46.54101" lon="0.33517">
        <ele>94.72</ele>
        <time>2023-06-07T19:12:33.337Z</time>
      </trkpt>
      <trkpt lat="46.54106" lon="0.33532">
        <ele>95.5</ele>
        <time>2023-06-07T19:12:33.960Z</time>
      </trkpt>
      <trkpt lat="46.5412" lon="0.3358">
        <ele>98.09</ele>
        <time>2023-06-07T19:12:34.589Z</time>
      </trkpt>
      <trkpt lat="46.54123" lon="0.33591">
        <ele>98.72</ele>
        <time>2023-06-07T19:12:35.219Z</time>
      </trkpt>
      <trkpt lat="46.54127" lon="0.33603">
        <ele>99.31</ele>
        <time>2023-06-07T19:12:35.851Z</time>
      </trkpt>
      <trkpt lat="46.54147" lon="0.3367">
        <ele>102.47</ele>
        <time>2023-06-07T19:12:36.491Z</time>
      </trkpt>
      <trkpt lat="46.54148" lon="0.33673">
        <ele>102.64</ele>
        <time>2023-06-07T19:12:37.131Z</time>
      </trkpt>
      <trkpt lat="46.54165" lon="0.33741">
        <ele>106.47</ele>
        <time>2023-06-07T19:12:37.779Z</time>
      </trkpt>
      <trkpt lat="46.54165" lon="0.33744">
        <ele>106.61</ele>
        <time>2023-06-07T19:12:38.427Z</time>
      </trkpt>
      <trkpt lat="46.54177" lon="0.3382">
        <ele>110.56</ele>
        <time>2023-06-07T19:12:39.084Z</time>
      </trkpt>
      <trkpt lat="46.54177" lon="0.33823">
        <ele>110.46</ele>
        <time>2023-06-07T19:12:39.741Z</time>
      </trkpt>
      <trkpt lat="46.5418" lon="0.33814">
        <ele>110.14</ele>
        <time>2023-06-07T19:12:40.399Z</time>
      </trkpt>
      <trkpt lat="46.54184" lon="0.33803">
        <ele>109.78</ele>
        <time>2023-06-07T19:12:41.059Z</time>
      </trkpt>
      <trkpt lat="46.54193" lon="0.33779">
        <ele>109.25</ele>
        <time>2023-06-07T19:12:41.722Z</time>
      </trkpt>
      <trkpt lat="46.542" lon="0.3376">
        <ele>108.76</ele>
        <time>2023-06-07T19:12:42.387Z</time>
      </trkpt>
      <trkpt lat="46.54202" lon="0.33757">
        <ele>108.67</ele>
        <time>2023-06-07T19:12:43.053Z</time>
      </trkpt>
      <trkpt lat="46.54211" lon="0.33735">
        <ele>108.17</ele>
        <time>2023-06-07T19:12:43.721Z</time>
      </trkpt>
      <trkpt lat="46.54214" lon="0.33729">
        <ele>108.02</ele>
        <time>2023-06-07T19:12:44.390Z</time>
      </trkpt>
      <trkpt lat="46.54219" lon="0.33718">
        <ele>107.68</ele>
        <time>2023-06-07T19:12:45.061Z</time>
      </trkpt>
      <trkpt lat="46.54221" lon="0.33714">
        <ele>107.51</ele>
        <time>2023-06-07T19:12:45.732Z</time>
      </trkpt>
      <trkpt lat="46.54229" lon="0.33706">
        <ele>107.06</ele>
        <time>2023-06-07T19:12:46.405Z</time>
      </trkpt>
      <trkpt lat="46.54252" lon="0.33684">
        <ele>105.68</ele>
        <time>2023-06-07T19:12:47.082Z</time>
      </trkpt>
      <trkpt lat="46.54267" lon="0.3367">
        <ele>104.85</ele>
        <time>2023-06-07T19:12:47.762Z</time>
      </trkpt>
      <trkpt lat="46.54274" lon="0.33663">
        <ele>104.47</ele>
        <time>2023-06-07T19:12:48.443Z</time>
      </trkpt>
      <trkpt lat="46.54278" lon="0.33659">
        <ele>104.3</ele>
        <time>2023-06-07T19:12:49.125Z</time>
      </trkpt>
      <trkpt lat="46.54297" lon="0.33641">
        <ele>103.54</ele>
        <time>2023-06-07T19:12:49.811Z</time>
      </trkpt>
      <trkpt lat="46.54304" lon="0.33634">
        <ele>103.2</ele>
        <time>2023-06-07T19:12:50.498Z</time>
      </trkpt>
      <trkpt lat="46.54311" lon="0.33626">
        <ele>102.81</ele>
        <time>2023-06-07T19:12:51.187Z</time>
      </trkpt>
      <trkpt lat="46.54315" lon="0.33623">
        <ele>102.59</ele>
        <time>2023-06-07T19:12:51.876Z</time>
      </trkpt>
      <trkpt lat="46.54328" lon="0.33616">
        <ele>101.9</ele>
        <time>2023-06-07T19:12:52.568Z</time>
      </trkpt>
      <trkpt lat="46.54336" lon="0.33612">
        <ele>101.5</ele>
        <time>2023-06-07T19:12:53.261Z</time>
      </trkpt>
      <trkpt lat="46.54338" lon="0.33611">
        <ele>101.44</ele>
        <time>2023-06-07T19:12:53.954Z</time>
      </trkpt>
      <trkpt lat="46.54345" lon="0.33611">
        <ele>101.18</ele>
        <time>2023-06-07T19:12:54.648Z</time>
      </trkpt>
      <trkpt lat="46.5435" lon="0.33611">
        <ele>101.06</ele>
        <time>2023-06-07T19:12:55.343Z</time>
      </trkpt>
      <trkpt lat="46.54363" lon="0.33612">
        <ele>100.76</ele>
        <time>2023-06-07T19:12:56.040Z</time>
      </trkpt>
      <trkpt lat="46.54377" lon="0.33612">
        <ele>100.51</ele>
        <time>2023-06-07T19:12:56.739Z</time>
      </trkpt>
      <trkpt lat="46.54386" lon="0.33612">
        <ele>100.42</ele>
        <time>2023-06-07T19:12:57.440Z</time>
      </trkpt>
      <trkpt lat="46.54395" lon="0.33612">
        <ele>100.41</ele>
        <time>2023-06-07T19:12:58.142Z</time>
      </trkpt>
      <trkpt lat="46.54399" lon="0.33613">
        <ele>100.43</ele>
        <time>2023-06-07T19:12:58.845Z</time>
      </trkpt>
      <trkpt lat="46.54408" lon="0.33613">
        <ele>100.55</ele>
        <time>2023-06-07T19:12:59.549Z</time>
      </trkpt>
      <trkpt lat="46.54417" lon="0.33613">
        <ele>100.77</ele>
        <time>2023-06-07T19:13:00.255Z</time>
      </trkpt>
      <trkpt lat="46.54422" lon="0.33613">
        <ele>100.92</ele>
        <time>2023-06-07T19:13:00.962Z</time>
      </trkpt>
      <trkpt lat="46.5444" lon="0.33614">
        <ele>101.62</ele>
        <time>2023-06-07T19:13:01.672Z</time>
      </trkpt>
      <trkpt lat="46.54449" lon="0.33614">
        <ele>101.92</ele>
        <time>2023-06-07T19:13:02.383Z</time>
      </trkpt>
      <trkpt lat="46.54453" lon="0.33614">
        <ele>102.04</ele>
        <time>2023-06-07T19:13:03.095Z</time>
      </trkpt>
      <trkpt lat="46.54462" lon="0.33614">
        <ele>102.21</ele>
        <time>2023-06-07T19:13:03.808Z</time>
      </trkpt>
      <trkpt lat="46.54489" lon="0.33615">
        <ele>102.54</ele>
        <time>2023-06-07T19:13:04.525Z</time>
      </trkpt>
      <trkpt lat="46.54493" lon="0.33615">
        <ele>102.61</ele>
        <time>2023-06-07T19:13:05.243Z</time>
      </trkpt>
      <trkpt lat="46.54523" lon="0.3363">
        <ele>103.24</ele>
        <time>2023-06-07T19:13:05.966Z</time>
      </trkpt>
      <trkpt lat="46.54532" lon="0.33634">
        <ele>103.39</ele>
        <time>2023-06-07T19:13:06.691Z</time>
      </trkpt>
      <trkpt lat="46.5454" lon="0.33639">
        <ele>103.47</ele>
        <time>2023-06-07T19:13:07.417Z</time>
      </trkpt>
      <trkpt lat="46.54553" lon="0.33645">
        <ele>103.47</ele>
        <time>2023-06-07T19:13:08.145Z</time>
      </trkpt>
      <trkpt lat="46.5457" lon="0.33654">
        <ele>103.35</ele>
        <time>2023-06-07T19:13:08.876Z</time>
      </trkpt>
      <trkpt lat="46.54579" lon="0.33658">
        <ele>103.21</ele>
        <time>2023-06-07T19:13:09.609Z</time>
      </trkpt>
      <trkpt lat="46.54581" lon="0.33659">
        <ele>102.91</ele>
        <time>2023-06-07T19:13:10.342Z</time>
      </trkpt>
      <trkpt lat="46.54583" lon="0.33651">
        <ele>102.22</ele>
        <time>2023-06-07T19:13:11.076Z</time>
      </trkpt>
      <trkpt lat="46.54584" lon="0.33645">
        <ele>101.68</ele>
        <time>2023-06-07T19:13:11.811Z</time>
      </trkpt>
      <trkpt lat="46.54589" lon="0.33615">
        <ele>98.78</ele>
        <time>2023-06-07T19:13:12.549Z</time>
      </trkpt>
      <trkpt lat="46.5459" lon="0.33609">
        <ele>98.24</ele>
        <time>2023-06-07T19:13:13.288Z</time>
      </trkpt>
      <trkpt lat="46.5459" lon="0.33609">
        <ele>98.24</ele>
        <time>2023-06-07T19:13:14.027Z</time>
      </trkpt>
      <trkpt lat="46.54594" lon="0.33605">
        <ele>97.73</ele>
        <time>2023-06-07T19:13:14.766Z</time>
      </trkpt>
      <trkpt lat="46.54594" lon="0.33605">
        <ele>97.73</ele>
        <time>2023-06-07T19:13:15.505Z</time>
      </trkpt>
      <trkpt lat="46.54598" lon="0.33605">
        <ele>97.27</ele>
        <time>2023-06-07T19:13:16.245Z</time>
      </trkpt>
      <trkpt lat="46.54601" lon="0.33605">
        <ele>96.97</ele>
        <time>2023-06-07T19:13:16.986Z</time>
      </trkpt>
      <trkpt lat="46.54602" lon="0.33606">
        <ele>96.87</ele>
        <time>2023-06-07T19:13:17.727Z</time>
      </trkpt>
      <trkpt lat="46.54609" lon="0.33613">
        <ele>96.21</ele>
        <time>2023-06-07T19:13:18.469Z</time>
      </trkpt>
      <trkpt lat="46.54616" lon="0.33619">
        <ele>95.86</ele>
        <time>2023-06-07T19:13:19.212Z</time>
      </trkpt>
      <trkpt lat="46.5462" lon="0.33623">
        <ele>95.7</ele>
        <time>2023-06-07T19:13:19.956Z</time>
      </trkpt>
      <trkpt lat="46.54627" lon="0.3363">
        <ele>95.43</ele>
        <time>2023-06-07T19:13:20.702Z</time>
      </trkpt>
      <trkpt lat="46.54628" lon="0.33631">
        <ele>95.39</ele>
        <time>2023-06-07T19:13:21.448Z</time>
      </trkpt>
      <trkpt lat="46.54639" lon="0.33638">
        <ele>95.11</ele>
        <time>2023-06-07T19:13:22.196Z</time>
      </trkpt>
      <trkpt lat="46.54647" lon="0.33643">
        <ele>94.94</ele>
        <time>2023-06-07T19:13:22.945Z</time>
      </trkpt>
      <trkpt lat="46.54651" lon="0.33644">
        <ele>94.88</ele>
        <time>2023-06-07T19:13:23.695Z</time>
      </trkpt>
      <trkpt lat="46.54664" lon="0.33646">
        <ele>94.75</ele>
        <time>2023-06-07T19:13:24.447Z</time>
      </trkpt>
      <trkpt lat="46.54664" lon="0.33646">
        <ele>94.75</ele>
        <time>2023-06-07T19:13:25.199Z</time>
      </trkpt>
      <trkpt lat="46.54672" lon="0.33645">
        <ele>94.7</ele>
        <time>2023-06-07T19:13:25.952Z</time>
      </trkpt>
      <trkpt lat="46.54676" lon="0.33645">
        <ele>94.69</ele>
        <time>2023-06-07T19:13:26.706Z</time>
      </trkpt>
      <trkpt lat="46.54682" lon="0.33644">
        <ele>94.7</ele>
        <time>2023-06-07T19:13:27.461Z</time>
      </trkpt>
      <trkpt lat="46.54685" lon="0.33643">
        <ele>94.72</ele>
        <time>2023-06-07T19:13:28.216Z</time>
      </trkpt>
      <trkpt lat="46.54697" lon="0.33636">
        <ele>94.86</ele>
        <time>2023-06-07T19:13:28.973Z</time>
      </trkpt>
      <trkpt lat="46.54699" lon="0.33635">
        <ele>94.83</ele>
        <time>2023-06-07T19:13:29.731Z</time>
      </trkpt>
      <trkpt lat="46.54713" lon="0.33621">
        <ele>94.62</ele>
        <time>2023-06-07T19:13:30.491Z</time>
      </trkpt>
      <trkpt lat="46.54715" lon="0.33619">
        <ele>94.62</ele>
        <time>2023-06-07T19:13:31.252Z</time>
      </trkpt>
      <trkpt lat="46.54725" lon="0.33604">
        <ele>94.66</ele>
        <time>2023-06-07T19:13:32.015Z</time>
      </trkpt>
      <trkpt lat="46.54726" lon="0.33602">
        <ele>94.67</ele>
        <time>2023-06-07T19:13:32.778Z</time>
      </trkpt>
      <trkpt lat="46.54745" lon="0.33566">
        <ele>94.66</ele>
        <time>2023-06-07T19:13:33.546Z</time>
      </trkpt>
      <trkpt lat="46.54756" lon="0.33545">
        <ele>94.7</ele>
        <time>2023-06-07T19:13:34.317Z</time>
      </trkpt>
      <trkpt lat="46.54768" lon="0.33522">
        <ele>94.71</ele>
        <time>2023-06-07T19:13:35.091Z</time>
      </trkpt>
      <trkpt lat="46.548" lon="0.33464">
        <ele>94.76</ele>
        <time>2023-06-07T19:13:35.874Z</time>
      </trkpt>
      <trkpt lat="46.5482" lon="0.33429">
        <ele>94.85</ele>
        <time>2023-06-07T19:13:36.662Z</time>
      </trkpt>
      <trkpt lat="46.54834" lon="0.33404">
        <ele>94.96</ele>
        <time>2023-06-07T19:13:37.453Z</time>
      </trkpt>
      <trkpt lat="46.54845" lon="0.33391">
        <ele>95.04</ele>
        <time>2023-06-07T19:13:38.246Z</time>
      </trkpt>
      <trkpt lat="46.54856" lon="0.33377">
        <ele>95.07</ele>
        <time>2023-06-07T19:13:39.042Z</time>
      </trkpt>
      <trkpt lat="46.54859" lon="0.33374">
        <ele>95.08</ele>
        <time>2023-06-07T19:13:39.838Z</time>
      </trkpt>
      <trkpt lat="46.54869" lon="0.33364">
        <ele>95.09</ele>
        <time>2023-06-07T19:13:40.636Z</time>
      </trkpt>
      <trkpt lat="46.54886" lon="0.33351">
        <ele>95.12</ele>
        <time>2023-06-07T19:13:41.437Z</time>
      </trkpt>
      <trkpt lat="46.54886" lon="0.33351">
        <ele>95.12</ele>
        <time>2023-06-07T19:13:42.238Z</time>
      </trkpt>
      <trkpt lat="46.54894" lon="0.33347">
        <ele>95.17</ele>
        <time>2023-06-07T19:13:43.041Z</time>
      </trkpt>
      <trkpt lat="46.54902" lon="0.33342">
        <ele>95.25</ele>
        <time>2023-06-07T19:13:43.845Z</time>
      </trkpt>
      <trkpt lat="46.54904" lon="0.33341">
        <ele>95.3</ele>
        <time>2023-06-07T19:13:44.649Z</time>
      </trkpt>
      <trkpt lat="46.54915" lon="0.3334">
        <ele>95.6</ele>
        <time>2023-06-07T19:13:45.455Z</time>
      </trkpt>
      <trkpt lat="46.54924" lon="0.33339">
        <ele>95.87</ele>
        <time>2023-06-07T19:13:46.263Z</time>
      </trkpt>
      <trkpt lat="46.54924" lon="0.33339">
        <ele>95.87</ele>
        <time>2023-06-07T19:13:47.071Z</time>
      </trkpt>
      <trkpt lat="46.54932" lon="0.3334">
        <ele>96.19</ele>
        <time>2023-06-07T19:13:47.880Z</time>
      </trkpt>
      <trkpt lat="46.54941" lon="0.33342">
        <ele>96.54</ele>
        <time>2023-06-07T19:13:48.690Z</time>
      </trkpt>
      <trkpt lat="46.54943" lon="0.33342">
        <ele>96.57</ele>
        <time>2023-06-07T19:13:49.501Z</time>
      </trkpt>
      <trkpt lat="46.54961" lon="0.33356">
        <ele>96.9</ele>
        <time>2023-06-07T19:13:50.315Z</time>
      </trkpt>
      <trkpt lat="46.54969" lon="0.33362">
        <ele>97.06</ele>
        <time>2023-06-07T19:13:51.130Z</time>
      </trkpt>
      <trkpt lat="46.54996" lon="0.33383">
        <ele>97.63</ele>
        <time>2023-06-07T19:13:51.950Z</time>
      </trkpt>
      <trkpt lat="46.55008" lon="0.33392">
        <ele>97.91</ele>
        <time>2023-06-07T19:13:52.773Z</time>
      </trkpt>
      <trkpt lat="46.55025" lon="0.33405">
        <ele>98.34</ele>
        <time>2023-06-07T19:13:53.599Z</time>
      </trkpt>
      <trkpt lat="46.55025" lon="0.33405">
        <ele>98.34</ele>
        <time>2023-06-07T19:13:54.425Z</time>
      </trkpt>
      <trkpt lat="46.55045" lon="0.33417">
        <ele>98.84</ele>
        <time>2023-06-07T19:13:55.254Z</time>
      </trkpt>
      <trkpt lat="46.55053" lon="0.33421">
        <ele>99.05</ele>
        <time>2023-06-07T19:13:56.084Z</time>
      </trkpt>
      <trkpt lat="46.55062" lon="0.33427">
        <ele>99.29</ele>
        <time>2023-06-07T19:13:56.916Z</time>
      </trkpt>
      <trkpt lat="46.5509" lon="0.33446">
        <ele>100.13</ele>
        <time>2023-06-07T19:13:57.753Z</time>
      </trkpt>
      <trkpt lat="46.55093" lon="0.33448">
        <ele>100.2</ele>
        <time>2023-06-07T19:13:58.590Z</time>
      </trkpt>
      <trkpt lat="46.55118" lon="0.3346">
        <ele>100.81</ele>
        <time>2023-06-07T19:13:59.432Z</time>
      </trkpt>
      <trkpt lat="46.55132" lon="0.33469">
        <ele>101.17</ele>
        <time>2023-06-07T19:14:00.276Z</time>
      </trkpt>
      <trkpt lat="46.55153" lon="0.33482">
        <ele>101.76</ele>
        <time>2023-06-07T19:14:01.124Z</time>
      </trkpt>
      <trkpt lat="46.55167" lon="0.33491">
        <ele>102.13</ele>
        <time>2023-06-07T19:14:01.974Z</time>
      </trkpt>
      <trkpt lat="46.55182" lon="0.33496">
        <ele>102.52</ele>
        <time>2023-06-07T19:14:02.827Z</time>
      </trkpt>
      <trkpt lat="46.55196" lon="0.335">
        <ele>102.8</ele>
        <time>2023-06-07T19:14:03.682Z</time>
      </trkpt>
      <trkpt lat="46.55217" lon="0.33508">
        <ele>103.22</ele>
        <time>2023-06-07T19:14:04.541Z</time>
      </trkpt>
      <trkpt lat="46.55239" lon="0.33515">
        <ele>103.59</ele>
        <time>2023-06-07T19:14:05.403Z</time>
      </trkpt>
      <trkpt lat="46.55246" lon="0.33517">
        <ele>103.68</ele>
        <time>2023-06-07T19:14:06.266Z</time>
      </trkpt>
      <trkpt lat="46.55248" lon="0.33517">
        <ele>103.71</ele>
        <time>2023-06-07T19:14:07.130Z</time>
      </trkpt>
      <trkpt lat="46.55264" lon="0.33516">
        <ele>103.81</ele>
        <time>2023-06-07T19:14:07.996Z</time>
      </trkpt>
      <trkpt lat="46.55285" lon="0.33512">
        <ele>103.95</ele>
        <time>2023-06-07T19:14:08.865Z</time>
      </trkpt>
      <trkpt lat="46.55293" lon="0.33509">
        <ele>104.01</ele>
        <time>2023-06-07T19:14:09.736Z</time>
      </trkpt>
      <trkpt lat="46.55304" lon="0.33504">
        <ele>104.14</ele>
        <time>2023-06-07T19:14:10.609Z</time>
      </trkpt>
      <trkpt lat="46.55313" lon="0.33497">
        <ele>104.27</ele>
        <time>2023-06-07T19:14:11.483Z</time>
      </trkpt>
      <trkpt lat="46.55329" lon="0.33485">
        <ele>104.42</ele>
        <time>2023-06-07T19:14:12.360Z</time>
      </trkpt>
      <trkpt lat="46.55337" lon="0.33479">
        <ele>104.44</ele>
        <time>2023-06-07T19:14:13.239Z</time>
      </trkpt>
      <trkpt lat="46.55337" lon="0.33479">
        <ele>104.44</ele>
        <time>2023-06-07T19:14:14.118Z</time>
      </trkpt>
      <trkpt lat="46.55341" lon="0.33475">
        <ele>104.41</ele>
        <time>2023-06-07T19:14:14.997Z</time>
      </trkpt>
      <trkpt lat="46.55345" lon="0.33472">
        <ele>104.35</ele>
        <time>2023-06-07T19:14:15.877Z</time>
      </trkpt>
      <trkpt lat="46.55352" lon="0.33465">
        <ele>104.14</ele>
        <time>2023-06-07T19:14:16.759Z</time>
      </trkpt>
      <trkpt lat="46.55354" lon="0.33463">
        <ele>104.06</ele>
        <time>2023-06-07T19:14:17.641Z</time>
      </trkpt>
      <trkpt lat="46.55355" lon="0.33463">
        <ele>104.06</ele>
        <time>2023-06-07T19:14:18.523Z</time>
      </trkpt>
      <trkpt lat="46.55362" lon="0.3347">
        <ele>103.64</ele>
        <time>2023-06-07T19:14:19.406Z</time>
      </trkpt>
      <trkpt lat="46.5537" lon="0.33476">
        <ele>103.18</ele>
        <time>2023-06-07T19:14:20.291Z</time>
      </trkpt>
      <trkpt lat="46.55378" lon="0.33482">
        <ele>102.68</ele>
        <time>2023-06-07T19:14:21.177Z</time>
      </trkpt>
      <trkpt lat="46.55386" lon="0.33488">
        <ele>102.14</ele>
        <time>2023-06-07T19:14:22.065Z</time>
      </trkpt>
      <trkpt lat="46.55398" lon="0.33497">
        <ele>101.83</ele>
        <time>2023-06-07T19:14:22.955Z</time>
      </trkpt>
      <trkpt lat="46.554" lon="0.33499">
        <ele>101.86</ele>
        <time>2023-06-07T19:14:23.845Z</time>
      </trkpt>
      <trkpt lat="46.55403" lon="0.33504">
        <ele>101.96</ele>
        <time>2023-06-07T19:14:24.736Z</time>
      </trkpt>
      <trkpt lat="46.55405" lon="0.33507">
        <ele>101.9</ele>
        <time>2023-06-07T19:14:25.627Z</time>
      </trkpt>
      <trkpt lat="46.55423" lon="0.3346">
        <ele>101.07</ele>
        <time>2023-06-07T19:14:26.524Z</time>
      </trkpt>
      <trkpt lat="46.55429" lon="0.33443">
        <ele>100.74</ele>
        <time>2023-06-07T19:14:27.423Z</time>
      </trkpt>
      <trkpt lat="46.55441" lon="0.33412">
        <ele>100.06</ele>
        <time>2023-06-07T19:14:28.326Z</time>
      </trkpt>
      <trkpt lat="46.55443" lon="0.33404">
        <ele>99.9</ele>
        <time>2023-06-07T19:14:29.230Z</time>
      </trkpt>
      <trkpt lat="46.55449" lon="0.33384">
        <ele>99.47</ele>
        <time>2023-06-07T19:14:30.137Z</time>
      </trkpt>
      <trkpt lat="46.55455" lon="0.33372">
        <ele>99.18</ele>
        <time>2023-06-07T19:14:31.045Z</time>
      </trkpt>
      <trkpt lat="46.55456" lon="0.3337">
        <ele>99.14</ele>
        <time>2023-06-07T19:14:31.954Z</time>
      </trkpt>
      <trkpt lat="46.55469" lon="0.33335">
        <ele>98.53</ele>
        <time>2023-06-07T19:14:32.867Z</time>
      </trkpt>
      <trkpt lat="46.5547" lon="0.33332">
        <ele>98.39</ele>
        <time>2023-06-07T19:14:33.780Z</time>
      </trkpt>
      <trkpt lat="46.5547" lon="0.33332">
        <ele>98.39</ele>
        <time>2023-06-07T19:14:34.693Z</time>
      </trkpt>
      <trkpt lat="46.55494" lon="0.33272">
        <ele>97.49</ele>
        <time>2023-06-07T19:14:35.614Z</time>
      </trkpt>
      <trkpt lat="46.55511" lon="0.33229">
        <ele>96.76</ele>
        <time>2023-06-07T19:14:36.541Z</time>
      </trkpt>
      <trkpt lat="46.55518" lon="0.33212">
        <ele>96.52</ele>
        <time>2023-06-07T19:14:37.470Z</time>
      </trkpt>
      <trkpt lat="46.55524" lon="0.33196">
        <ele>96.36</ele>
        <time>2023-06-07T19:14:38.401Z</time>
      </trkpt>
      <trkpt lat="46.55529" lon="0.33185">
        <ele>96.29</ele>
        <time>2023-06-07T19:14:39.333Z</time>
      </trkpt>
      <trkpt lat="46.55533" lon="0.33174">
        <ele>96.26</ele>
        <time>2023-06-07T19:14:40.267Z</time>
      </trkpt>
      <trkpt lat="46.55537" lon="0.33163">
        <ele>96.31</ele>
        <time>2023-06-07T19:14:41.202Z</time>
      </trkpt>
      <trkpt lat="46.5554" lon="0.33158">
        <ele>96.37</ele>
        <time>2023-06-07T19:14:42.138Z</time>
      </trkpt>
      <trkpt lat="46.55544" lon="0.33147">
        <ele>96.53</ele>
        <time>2023-06-07T19:14:43.075Z</time>
      </trkpt>
      <trkpt lat="46.55548" lon="0.33136">
        <ele>96.74</ele>
        <time>2023-06-07T19:14:44.013Z</time>
      </trkpt>
      <trkpt lat="46.55553" lon="0.33125">
        <ele>97.01</ele>
        <time>2023-06-07T19:14:44.953Z</time>
      </trkpt>
      <trkpt lat="46.55554" lon="0.33122">
        <ele>96.95</ele>
        <time>2023-06-07T19:14:45.893Z</time>
      </trkpt>
      <trkpt lat="46.5556" lon="0.33117">
        <ele>96.79</ele>
        <time>2023-06-07T19:14:46.834Z</time>
      </trkpt>
      <trkpt lat="46.55566" lon="0.33116">
        <ele>96.66</ele>
        <time>2023-06-07T19:14:47.776Z</time>
      </trkpt>
      <trkpt lat="46.55567" lon="0.33117">
        <ele>96.63</ele>
        <time>2023-06-07T19:14:48.718Z</time>
      </trkpt>
      <trkpt lat="46.55575" lon="0.33122">
        <ele>96.38</ele>
        <time>2023-06-07T19:14:49.662Z</time>
      </trkpt>
      <trkpt lat="46.55583" lon="0.33126">
        <ele>96.09</ele>
        <time>2023-06-07T19:14:50.607Z</time>
      </trkpt>
      <trkpt lat="46.55585" lon="0.33128">
        <ele>95.93</ele>
        <time>2023-06-07T19:14:51.553Z</time>
      </trkpt>
      <trkpt lat="46.55596" lon="0.33143">
        <ele>95.04</ele>
        <time>2023-06-07T19:14:52.501Z</time>
      </trkpt>
      <trkpt lat="46.55612" lon="0.33164">
        <ele>93.69</ele>
        <time>2023-06-07T19:14:53.452Z</time>
      </trkpt>
      <trkpt lat="46.55642" lon="0.33203">
        <ele>90.94</ele>
        <time>2023-06-07T19:14:54.410Z</time>
      </trkpt>
      <trkpt lat="46.55655" lon="0.33219">
        <ele>90.11</ele>
        <time>2023-06-07T19:14:55.371Z</time>
      </trkpt>
      <trkpt lat="46.55661" lon="0.33227">
        <ele>89.73</ele>
        <time>2023-06-07T19:14:56.333Z</time>
      </trkpt>
      <trkpt lat="46.5567" lon="0.3324">
        <ele>89.25</ele>
        <time>2023-06-07T19:14:57.297Z</time>
      </trkpt>
      <trkpt lat="46.55679" lon="0.33252">
        <ele>88.87</ele>
        <time>2023-06-07T19:14:58.263Z</time>
      </trkpt>
      <trkpt lat="46.55689" lon="0.33264">
        <ele>88.59</ele>
        <time>2023-06-07T19:14:59.231Z</time>
      </trkpt>
      <trkpt lat="46.55704" lon="0.33285">
        <ele>88.15</ele>
        <time>2023-06-07T19:15:00.202Z</time>
      </trkpt>
      <trkpt lat="46.55711" lon="0.33293">
        <ele>88.02</ele>
        <time>2023-06-07T19:15:01.175Z</time>
      </trkpt>
      <trkpt lat="46.5572" lon="0.33306">
        <ele>87.89</ele>
        <time>2023-06-07T19:15:02.150Z</time>
      </trkpt>
      <trkpt lat="46.55722" lon="0.33308">
        <ele>87.83</ele>
        <time>2023-06-07T19:15:03.125Z</time>
      </trkpt>
      <trkpt lat="46.55726" lon="0.33314">
        <ele>87.7</ele>
        <time>2023-06-07T19:15:04.101Z</time>
      </trkpt>
      <trkpt lat="46.55733" lon="0.33323">
        <ele>87.54</ele>
        <time>2023-06-07T19:15:05.079Z</time>
      </trkpt>
      <trkpt lat="46.55739" lon="0.33331">
        <ele>87.44</ele>
        <time>2023-06-07T19:15:06.058Z</time>
      </trkpt>
      <trkpt lat="46.55742" lon="0.33336">
        <ele>87.41</ele>
        <time>2023-06-07T19:15:07.038Z</time>
      </trkpt>
      <trkpt lat="46.55745" lon="0.3334">
        <ele>87.41</ele>
        <time>2023-06-07T19:15:08.018Z</time>
      </trkpt>
      <trkpt lat="46.55752" lon="0.33348">
        <ele>87.46</ele>
        <time>2023-06-07T19:15:09.000Z</time>
      </trkpt>
      <trkpt lat="46.55763" lon="0.33364">
        <ele>87.68</ele>
        <time>2023-06-07T19:15:09.984Z</time>
      </trkpt>
      <trkpt lat="46.5577" lon="0.33376">
        <ele>87.84</ele>
        <time>2023-06-07T19:15:10.970Z</time>
      </trkpt>
      <trkpt lat="46.55778" lon="0.33391">
        <ele>88.01</ele>
        <time>2023-06-07T19:15:11.958Z</time>
      </trkpt>
      <trkpt lat="46.55783" lon="0.334">
        <ele>88.05</ele>
        <time>2023-06-07T19:15:12.947Z</time>
      </trkpt>
      <trkpt lat="46.55789" lon="0.33409">
        <ele>88.03</ele>
        <time>2023-06-07T19:15:13.938Z</time>
      </trkpt>
      <trkpt lat="46.55791" lon="0.33413">
        <ele>87.98</ele>
        <time>2023-06-07T19:15:14.929Z</time>
      </trkpt>
      <trkpt lat="46.55796" lon="0.33422">
        <ele>87.82</ele>
        <time>2023-06-07T19:15:15.922Z</time>
      </trkpt>
      <trkpt lat="46.55801" lon="0.33431">
        <ele>87.46</ele>
        <time>2023-06-07T19:15:16.916Z</time>
      </trkpt>
      <trkpt lat="46.55804" lon="0.33435">
        <ele>87.26</ele>
        <time>2023-06-07T19:15:17.910Z</time>
      </trkpt>
      <trkpt lat="46.55806" lon="0.33439">
        <ele>87.03</ele>
        <time>2023-06-07T19:15:18.905Z</time>
      </trkpt>
      <trkpt lat="46.55811" lon="0.33448">
        <ele>86.51</ele>
        <time>2023-06-07T19:15:19.901Z</time>
      </trkpt>
      <trkpt lat="46.55825" lon="0.33472">
        <ele>84.75</ele>
        <time>2023-06-07T19:15:20.901Z</time>
      </trkpt>
      <trkpt lat="46.55829" lon="0.33479">
        <ele>84.27</ele>
        <time>2023-06-07T19:15:21.902Z</time>
      </trkpt>
      <trkpt lat="46.55843" lon="0.3349">
        <ele>83.02</ele>
        <time>2023-06-07T19:15:22.905Z</time>
      </trkpt>
      <trkpt lat="46.55851" lon="0.33496">
        <ele>82.36</ele>
        <time>2023-06-07T19:15:23.910Z</time>
      </trkpt>
      <trkpt lat="46.55852" lon="0.33497">
        <ele>82.25</ele>
        <time>2023-06-07T19:15:24.915Z</time>
      </trkpt>
      <trkpt lat="46.55863" lon="0.33501">
        <ele>81.44</ele>
        <time>2023-06-07T19:15:25.922Z</time>
      </trkpt>
      <trkpt lat="46.55866" lon="0.33502">
        <ele>81.28</ele>
        <time>2023-06-07T19:15:26.929Z</time>
      </trkpt>
      <trkpt lat="46.55893" lon="0.3351">
        <ele>79.76</ele>
        <time>2023-06-07T19:15:27.941Z</time>
      </trkpt>
      <trkpt lat="46.55896" lon="0.33511">
        <ele>79.67</ele>
        <time>2023-06-07T19:15:28.953Z</time>
      </trkpt>
      <trkpt lat="46.5591" lon="0.33514">
        <ele>79.2</ele>
        <time>2023-06-07T19:15:29.967Z</time>
      </trkpt>
      <trkpt lat="46.55923" lon="0.33516">
        <ele>78.82</ele>
        <time>2023-06-07T19:15:30.984Z</time>
      </trkpt>
      <trkpt lat="46.55926" lon="0.33517">
        <ele>78.77</ele>
        <time>2023-06-07T19:15:32.001Z</time>
      </trkpt>
      <trkpt lat="46.55935" lon="0.33515">
        <ele>78.59</ele>
        <time>2023-06-07T19:15:33.019Z</time>
      </trkpt>
      <trkpt lat="46.5594" lon="0.33512">
        <ele>78.5</ele>
        <time>2023-06-07T19:15:34.038Z</time>
      </trkpt>
      <trkpt lat="46.55946" lon="0.33508">
        <ele>78.39</ele>
        <time>2023-06-07T19:15:35.058Z</time>
      </trkpt>
      <trkpt lat="46.55957" lon="0.33494">
        <ele>78.17</ele>
        <time>2023-06-07T19:15:36.081Z</time>
      </trkpt>
      <trkpt lat="46.55959" lon="0.33492">
        <ele>78.15</ele>
        <time>2023-06-07T19:15:37.104Z</time>
      </trkpt>
      <trkpt lat="46.55966" lon="0.33481">
        <ele>78.07</ele>
        <time>2023-06-07T19:15:38.129Z</time>
      </trkpt>
      <trkpt lat="46.55973" lon="0.33471">
        <ele>77.96</ele>
        <time>2023-06-07T19:15:39.155Z</time>
      </trkpt>
      <trkpt lat="46.55983" lon="0.33461">
        <ele>77.84</ele>
        <time>2023-06-07T19:15:40.183Z</time>
      </trkpt>
      <trkpt lat="46.55983" lon="0.33461">
        <ele>77.84</ele>
        <time>2023-06-07T19:15:41.211Z</time>
      </trkpt>
      <trkpt lat="46.55994" lon="0.33458">
        <ele>77.69</ele>
        <time>2023-06-07T19:15:42.241Z</time>
      </trkpt>
      <trkpt lat="46.56012" lon="0.33466">
        <ele>77.46</ele>
        <time>2023-06-07T19:15:43.274Z</time>
      </trkpt>
      <trkpt lat="46.56021" lon="0.33469">
        <ele>77.32</ele>
        <time>2023-06-07T19:15:44.308Z</time>
      </trkpt>
      <trkpt lat="46.56036" lon="0.33476">
        <ele>76.96</ele>
        <time>2023-06-07T19:15:45.345Z</time>
      </trkpt>
      <trkpt lat="46.56043" lon="0.33477">
        <ele>76.8</ele>
        <time>2023-06-07T19:15:46.383Z</time>
      </trkpt>
      <trkpt lat="46.56046" lon="0.33476">
        <ele>76.74</ele>
        <time>2023-06-07T19:15:47.422Z</time>
      </trkpt>
      <trkpt lat="46.56048" lon="0.33476">
        <ele>76.71</ele>
        <time>2023-06-07T19:15:48.461Z</time>
      </trkpt>
      <trkpt lat="46.5606" lon="0.33469">
        <ele>76.53</ele>
        <time>2023-06-07T19:15:49.502Z</time>
      </trkpt>
      <trkpt lat="46.56072" lon="0.33455">
        <ele>76.32</ele>
        <time>2023-06-07T19:15:50.546Z</time>
      </trkpt>
      <trkpt lat="46.56079" lon="0.33447">
        <ele>76.23</ele>
        <time>2023-06-07T19:15:51.591Z</time>
      </trkpt>
      <trkpt lat="46.56082" lon="0.33444">
        <ele>76.2</ele>
        <time>2023-06-07T19:15:52.637Z</time>
      </trkpt>
      <trkpt lat="46.56094" lon="0.33424">
        <ele>76.08</ele>
        <time>2023-06-07T19:15:53.685Z</time>
      </trkpt>
      <trkpt lat="46.56114" lon="0.33391">
        <ele>75.67</ele>
        <time>2023-06-07T19:15:54.738Z</time>
      </trkpt>
      <trkpt lat="46.56123" lon="0.33377">
        <ele>75.56</ele>
        <time>2023-06-07T19:15:55.793Z</time>
      </trkpt>
      <trkpt lat="46.56124" lon="0.33375">
        <ele>75.53</ele>
        <time>2023-06-07T19:15:56.849Z</time>
      </trkpt>
      <trkpt lat="46.56124" lon="0.33375">
        <ele>75.53</ele>
        <time>2023-06-07T19:15:57.905Z</time>
      </trkpt>
      <trkpt lat="46.56139" lon="0.33385">
        <ele>75.39</ele>
        <time>2023-06-07T19:15:58.963Z</time>
      </trkpt>
      <trkpt lat="46.56147" lon="0.33391">
        <ele>75.34</ele>
        <time>2023-06-07T19:16:00.023Z</time>
      </trkpt>
      <trkpt lat="46.56159" lon="0.33399">
        <ele>75.32</ele>
        <time>2023-06-07T19:16:01.085Z</time>
      </trkpt>
      <trkpt lat="46.56172" lon="0.33408">
        <ele>75.33</ele>
        <time>2023-06-07T19:16:02.149Z</time>
      </trkpt>
      <trkpt lat="46.56174" lon="0.33409">
        <ele>75.34</ele>
        <time>2023-06-07T19:16:03.214Z</time>
      </trkpt>
      <trkpt lat="46.56177" lon="0.3341">
        <ele>75.33</ele>
        <time>2023-06-07T19:16:04.279Z</time>
      </trkpt>
      <trkpt lat="46.56188" lon="0.33413">
        <ele>75.31</ele>
        <time>2023-06-07T19:16:05.346Z</time>
      </trkpt>
      <trkpt lat="46.56197" lon="0.33409">
        <ele>75.29</ele>
        <time>2023-06-07T19:16:06.414Z</time>
      </trkpt>
      <trkpt lat="46.562" lon="0.33406">
        <ele>75.29</ele>
        <time>2023-06-07T19:16:07.483Z</time>
      </trkpt>
      <trkpt lat="46.56205" lon="0.33401">
        <ele>75.29</ele>
        <time>2023-06-07T19:16:08.553Z</time>
      </trkpt>
      <trkpt lat="46.56217" lon="0.33369">
        <ele>75.33</ele>
        <time>2023-06-07T19:16:09.627Z</time>
      </trkpt>
      <trkpt lat="46.56218" lon="0.33368">
        <ele>75.32</ele>
        <time>2023-06-07T19:16:10.701Z</time>
      </trkpt>
      <trkpt lat="46.56229" lon="0.33333">
        <ele>75.27</ele>
        <time>2023-06-07T19:16:11.779Z</time>
      </trkpt>
      <trkpt lat="46.5623" lon="0.33328">
        <ele>75.27</ele>
        <time>2023-06-07T19:16:12.858Z</time>
      </trkpt>
      <trkpt lat="46.5624" lon="0.33258">
        <ele>75.38</ele>
        <time>2023-06-07T19:16:13.945Z</time>
      </trkpt>
      <trkpt lat="46.56241" lon="0.33249">
        <ele>75.4</ele>
        <time>2023-06-07T19:16:15.033Z</time>
      </trkpt>
      <trkpt lat="46.5625" lon="0.33223">
        <ele>75.49</ele>
        <time>2023-06-07T19:16:16.124Z</time>
      </trkpt>
      <trkpt lat="46.56263" lon="0.33188">
        <ele>75.51</ele>
        <time>2023-06-07T19:16:17.219Z</time>
      </trkpt>
      <trkpt lat="46.56264" lon="0.33185">
        <ele>75.49</ele>
        <time>2023-06-07T19:16:18.315Z</time>
      </trkpt>
      <trkpt lat="46.56265" lon="0.33183">
        <ele>75.48</ele>
        <time>2023-06-07T19:16:19.411Z</time>
      </trkpt>
      <trkpt lat="46.56269" lon="0.33169">
        <ele>75.45</ele>
        <time>2023-06-07T19:16:20.509Z</time>
      </trkpt>
      <trkpt lat="46.56271" lon="0.33139">
        <ele>75.39</ele>
        <time>2023-06-07T19:16:21.610Z</time>
      </trkpt>
      <trkpt lat="46.56272" lon="0.33126">
        <ele>75.35</ele>
        <time>2023-06-07T19:16:22.712Z</time>
      </trkpt>
      <trkpt lat="46.56271" lon="0.33101">
        <ele>75.29</ele>
        <time>2023-06-07T19:16:23.817Z</time>
      </trkpt>
      <trkpt lat="46.5627" lon="0.33082">
        <ele>75.25</ele>
        <time>2023-06-07T19:16:24.924Z</time>
      </trkpt>
      <trkpt lat="46.56266" lon="0.33049">
        <ele>75.19</ele>
        <time>2023-06-07T19:16:26.035Z</time>
      </trkpt>
      <trkpt lat="46.5626" lon="0.33033">
        <ele>75.15</ele>
        <time>2023-06-07T19:16:27.148Z</time>
      </trkpt>
      <trkpt lat="46.56254" lon="0.33022">
        <ele>75.13</ele>
        <time>2023-06-07T19:16:28.263Z</time>
      </trkpt>
      <trkpt lat="46.56253" lon="0.3302">
        <ele>75.12</ele>
        <time>2023-06-07T19:16:29.378Z</time>
      </trkpt>
      <trkpt lat="46.56234" lon="0.32999">
        <ele>75.08</ele>
        <time>2023-06-07T19:16:30.497Z</time>
      </trkpt>
      <trkpt lat="46.56201" lon="0.32961">
        <ele>75.05</ele>
        <time>2023-06-07T19:16:31.622Z</time>
      </trkpt>
      <trkpt lat="46.56199" lon="0.32959">
        <ele>75.05</ele>
        <time>2023-06-07T19:16:32.748Z</time>
      </trkpt>
      <trkpt lat="46.56196" lon="0.32952">
        <ele>75.08</ele>
        <time>2023-06-07T19:16:33.875Z</time>
      </trkpt>
      <trkpt lat="46.56193" lon="0.32946">
        <ele>75.1</ele>
        <time>2023-06-07T19:16:35.003Z</time>
      </trkpt>
      <trkpt lat="46.56192" lon="0.32945">
        <ele>75.12</ele>
        <time>2023-06-07T19:16:36.131Z</time>
      </trkpt>
      <trkpt lat="46.5619" lon="0.32942">
        <ele>75.12</ele>
        <time>2023-06-07T19:16:37.259Z</time>
      </trkpt>
      <trkpt lat="46.56185" lon="0.32919">
        <ele>75.13</ele>
        <time>2023-06-07T19:16:38.390Z</time>
      </trkpt>
      <trkpt lat="46.5618" lon="0.32907">
        <ele>75.13</ele>
        <time>2023-06-07T19:16:39.522Z</time>
      </trkpt>
      <trkpt lat="46.56179" lon="0.32905">
        <ele>75.14</ele>
        <time>2023-06-07T19:16:40.655Z</time>
      </trkpt>
      <trkpt lat="46.56173" lon="0.32898">
        <ele>75.17</ele>
        <time>2023-06-07T19:16:41.789Z</time>
      </trkpt>
      <trkpt lat="46.56168" lon="0.32896">
        <ele>75.2</ele>
        <time>2023-06-07T19:16:42.924Z</time>
      </trkpt>
      <trkpt lat="46.56155" lon="0.32892">
        <ele>75.28</ele>
        <time>2023-06-07T19:16:44.061Z</time>
      </trkpt>
      <trkpt lat="46.56153" lon="0.32891">
        <ele>75.31</ele>
        <time>2023-06-07T19:16:45.198Z</time>
      </trkpt>
      <trkpt lat="46.56154" lon="0.32882">
        <ele>75.43</ele>
        <time>2023-06-07T19:16:46.336Z</time>
      </trkpt>
      <trkpt lat="46.56155" lon="0.32875">
        <ele>75.47</ele>
        <time>2023-06-07T19:16:47.475Z</time>
      </trkpt>
      <trkpt lat="46.56156" lon="0.32869">
        <ele>75.48</ele>
        <time>2023-06-07T19:16:48.615Z</time>
      </trkpt>
      <trkpt lat="46.56158" lon="0.32851">
        <ele>75.42</ele>
        <time>2023-06-07T19:16:49.757Z</time>
      </trkpt>
      <trkpt lat="46.56158" lon="0.32848">
        <ele>75.42</ele>
        <time>2023-06-07T19:16:50.899Z</time>
      </trkpt>
      <trkpt lat="46.56144" lon="0.32838">
        <ele>75.45</ele>
        <time>2023-06-07T19:16:52.044Z</time>
      </trkpt>
      <trkpt lat="46.56128" lon="0.32827">
        <ele>75.43</ele>
        <time>2023-06-07T19:16:53.191Z</time>
      </trkpt>
      <trkpt lat="46.5612" lon="0.32821">
        <ele>75.45</ele>
        <time>2023-06-07T19:16:54.340Z</time>
      </trkpt>
      <trkpt lat="46.56115" lon="0.32818">
        <ele>75.47</ele>
        <time>2023-06-07T19:16:55.490Z</time>
      </trkpt>
      <trkpt lat="46.56096" lon="0.32804">
        <ele>75.58</ele>
        <time>2023-06-07T19:16:56.643Z</time>
      </trkpt>
      <trkpt lat="46.5608" lon="0.32792">
        <ele>75.62</ele>
        <time>2023-06-07T19:16:57.799Z</time>
      </trkpt>
      <trkpt lat="46.56069" lon="0.32783">
        <ele>75.61</ele>
        <time>2023-06-07T19:16:58.957Z</time>
      </trkpt>
      <trkpt lat="46.56065" lon="0.3278">
        <ele>75.59</ele>
        <time>2023-06-07T19:17:00.116Z</time>
      </trkpt>
      <trkpt lat="46.56032" lon="0.32747">
        <ele>75.48</ele>
        <time>2023-06-07T19:17:01.281Z</time>
      </trkpt>
      <trkpt lat="46.56024" lon="0.3274">
        <ele>75.5</ele>
        <time>2023-06-07T19:17:02.448Z</time>
      </trkpt>
      <trkpt lat="46.5602" lon="0.32736">
        <ele>75.52</ele>
        <time>2023-06-07T19:17:03.615Z</time>
      </trkpt>
      <trkpt lat="46.56014" lon="0.32727">
        <ele>75.57</ele>
        <time>2023-06-07T19:17:04.784Z</time>
      </trkpt>
      <trkpt lat="46.56007" lon="0.32717">
        <ele>75.59</ele>
        <time>2023-06-07T19:17:05.954Z</time>
      </trkpt>
      <trkpt lat="46.55995" lon="0.32696">
        <ele>75.65</ele>
        <time>2023-06-07T19:17:07.127Z</time>
      </trkpt>
      <trkpt lat="46.5599" lon="0.32683">
        <ele>75.68</ele>
        <time>2023-06-07T19:17:08.302Z</time>
      </trkpt>
      <trkpt lat="46.55973" lon="0.32657">
        <ele>75.75</ele>
        <time>2023-06-07T19:17:09.481Z</time>
      </trkpt>
      <trkpt lat="46.55961" lon="0.32637">
        <ele>75.83</ele>
        <time>2023-06-07T19:17:10.663Z</time>
      </trkpt>
      <trkpt lat="46.55955" lon="0.32622">
        <ele>75.89</ele>
        <time>2023-06-07T19:17:11.847Z</time>
      </trkpt>
      <trkpt lat="46.55951" lon="0.32614">
        <ele>75.88</ele>
        <time>2023-06-07T19:17:13.032Z</time>
      </trkpt>
      <trkpt lat="46.55944" lon="0.32588">
        <ele>75.86</ele>
        <time>2023-06-07T19:17:14.220Z</time>
      </trkpt>
      <trkpt lat="46.55938" lon="0.32565">
        <ele>75.79</ele>
        <time>2023-06-07T19:17:15.411Z</time>
      </trkpt>
      <trkpt lat="46.55931" lon="0.32541">
        <ele>75.77</ele>
        <time>2023-06-07T19:17:16.605Z</time>
      </trkpt>
      <trkpt lat="46.55927" lon="0.32523">
        <ele>75.82</ele>
        <time>2023-06-07T19:17:17.801Z</time>
      </trkpt>
      <trkpt lat="46.55926" lon="0.32521">
        <ele>75.83</ele>
        <time>2023-06-07T19:17:18.997Z</time>
      </trkpt>
      <trkpt lat="46.55923" lon="0.32502">
        <ele>75.94</ele>
        <time>2023-06-07T19:17:20.195Z</time>
      </trkpt>
      <trkpt lat="46.55925" lon="0.3248">
        <ele>76.08</ele>
        <time>2023-06-07T19:17:21.396Z</time>
      </trkpt>
      <trkpt lat="46.55929" lon="0.32448">
        <ele>76.16</ele>
        <time>2023-06-07T19:17:22.600Z</time>
      </trkpt>
      <trkpt lat="46.5593" lon="0.32436">
        <ele>76.15</ele>
        <time>2023-06-07T19:17:23.805Z</time>
      </trkpt>
      <trkpt lat="46.55931" lon="0.3243">
        <ele>76.12</ele>
        <time>2023-06-07T19:17:25.011Z</time>
      </trkpt>
      <trkpt lat="46.55937" lon="0.32412">
        <ele>76.06</ele>
        <time>2023-06-07T19:17:26.219Z</time>
      </trkpt>
      <trkpt lat="46.5594" lon="0.324">
        <ele>76.04</ele>
        <time>2023-06-07T19:17:27.429Z</time>
      </trkpt>
      <trkpt lat="46.55946" lon="0.32382">
        <ele>76.02</ele>
        <time>2023-06-07T19:17:28.641Z</time>
      </trkpt>
      <trkpt lat="46.55948" lon="0.32378">
        <ele>76.02</ele>
        <time>2023-06-07T19:17:29.853Z</time>
      </trkpt>
      <trkpt lat="46.55955" lon="0.32367">
        <ele>76.03</ele>
        <time>2023-06-07T19:17:31.067Z</time>
      </trkpt>
      <trkpt lat="46.55961" lon="0.32361">
        <ele>76.04</ele>
        <time>2023-06-07T19:17:32.282Z</time>
      </trkpt>
      <trkpt lat="46.55963" lon="0.3236">
        <ele>76.06</ele>
        <time>2023-06-07T19:17:33.498Z</time>
      </trkpt>
      <trkpt lat="46.55993" lon="0.32347">
        <ele>76.4</ele>
        <time>2023-06-07T19:17:34.719Z</time>
      </trkpt>
      <trkpt lat="46.55995" lon="0.32346">
        <ele>76.43</ele>
        <time>2023-06-07T19:17:35.940Z</time>
      </trkpt>
      <trkpt lat="46.56011" lon="0.32337">
        <ele>76.64</ele>
        <time>2023-06-07T19:17:37.164Z</time>
      </trkpt>
      <trkpt lat="46.56024" lon="0.3233">
        <ele>76.74</ele>
        <time>2023-06-07T19:17:38.390Z</time>
      </trkpt>
      <trkpt lat="46.56032" lon="0.32325">
        <ele>76.76</ele>
        <time>2023-06-07T19:17:39.617Z</time>
      </trkpt>
      <trkpt lat="46.56036" lon="0.32323">
        <ele>76.75</ele>
        <time>2023-06-07T19:17:40.845Z</time>
      </trkpt>
      <trkpt lat="46.56061" lon="0.32309">
        <ele>76.61</ele>
        <time>2023-06-07T19:17:42.077Z</time>
      </trkpt>
      <trkpt lat="46.56081" lon="0.32297">
        <ele>76.56</ele>
        <time>2023-06-07T19:17:43.313Z</time>
      </trkpt>
      <trkpt lat="46.56098" lon="0.32288">
        <ele>76.54</ele>
        <time>2023-06-07T19:17:44.552Z</time>
      </trkpt>
      <trkpt lat="46.561" lon="0.32287">
        <ele>76.53</ele>
        <time>2023-06-07T19:17:45.791Z</time>
      </trkpt>
      <trkpt lat="46.56128" lon="0.32265">
        <ele>76.42</ele>
        <time>2023-06-07T19:17:47.035Z</time>
      </trkpt>
      <trkpt lat="46.56155" lon="0.32244">
        <ele>76.4</ele>
        <time>2023-06-07T19:17:48.284Z</time>
      </trkpt>
      <trkpt lat="46.56173" lon="0.32229">
        <ele>76.35</ele>
        <time>2023-06-07T19:17:49.536Z</time>
      </trkpt>
      <trkpt lat="46.56203" lon="0.32214">
        <ele>76.28</ele>
        <time>2023-06-07T19:17:50.793Z</time>
      </trkpt>
      <trkpt lat="46.56212" lon="0.3221">
        <ele>76.29</ele>
        <time>2023-06-07T19:17:52.052Z</time>
      </trkpt>
      <trkpt lat="46.56237" lon="0.32198">
        <ele>76.41</ele>
        <time>2023-06-07T19:17:53.315Z</time>
      </trkpt>
      <trkpt lat="46.56258" lon="0.32188">
        <ele>76.37</ele>
        <time>2023-06-07T19:17:54.582Z</time>
      </trkpt>
      <trkpt lat="46.5626" lon="0.32187">
        <ele>76.36</ele>
        <time>2023-06-07T19:17:55.849Z</time>
      </trkpt>
      <trkpt lat="46.56275" lon="0.3218">
        <ele>76.31</ele>
        <time>2023-06-07T19:17:57.118Z</time>
      </trkpt>
      <trkpt lat="46.56287" lon="0.32173">
        <ele>76.29</ele>
        <time>2023-06-07T19:17:58.390Z</time>
      </trkpt>
      <trkpt lat="46.56297" lon="0.32168">
        <ele>76.32</ele>
        <time>2023-06-07T19:17:59.663Z</time>
      </trkpt>
      <trkpt lat="46.56326" lon="0.32157">
        <ele>76.41</ele>
        <time>2023-06-07T19:18:00.941Z</time>
      </trkpt>
      <trkpt lat="46.5634" lon="0.32151">
        <ele>76.41</ele>
        <time>2023-06-07T19:18:02.221Z</time>
      </trkpt>
      <trkpt lat="46.56347" lon="0.3215">
        <ele>76.41</ele>
        <time>2023-06-07T19:18:03.503Z</time>
      </trkpt>
      <trkpt lat="46.56372" lon="0.32145">
        <ele>76.46</ele>
        <time>2023-06-07T19:18:04.789Z</time>
      </trkpt>
      <trkpt lat="46.56374" lon="0.32145">
        <ele>76.47</ele>
        <time>2023-06-07T19:18:06.075Z</time>
      </trkpt>
      <trkpt lat="46.56396" lon="0.32142">
        <ele>76.43</ele>
        <time>2023-06-07T19:18:07.364Z</time>
      </trkpt>
      <trkpt lat="46.56399" lon="0.32142">
        <ele>76.41</ele>
        <time>2023-06-07T19:18:08.654Z</time>
      </trkpt>
      <trkpt lat="46.56436" lon="0.32141">
        <ele>76.28</ele>
        <time>2023-06-07T19:18:09.950Z</time>
      </trkpt>
      <trkpt lat="46.56437" lon="0.32141">
        <ele>76.28</ele>
        <time>2023-06-07T19:18:11.246Z</time>
      </trkpt>
      <trkpt lat="46.56458" lon="0.32144">
        <ele>76.28</ele>
        <time>2023-06-07T19:18:12.545Z</time>
      </trkpt>
      <trkpt lat="46.56463" lon="0.32146">
        <ele>76.29</ele>
        <time>2023-06-07T19:18:13.845Z</time>
      </trkpt>
      <trkpt lat="46.56488" lon="0.32156">
        <ele>76.37</ele>
        <time>2023-06-07T19:18:15.149Z</time>
      </trkpt>
      <trkpt lat="46.56491" lon="0.32157">
        <ele>76.39</ele>
        <time>2023-06-07T19:18:16.454Z</time>
      </trkpt>
      <trkpt lat="46.56521" lon="0.32174">
        <ele>76.69</ele>
        <time>2023-06-07T19:18:17.764Z</time>
      </trkpt>
      <trkpt lat="46.56533" lon="0.32181">
        <ele>76.75</ele>
        <time>2023-06-07T19:18:19.076Z</time>
      </trkpt>
      <trkpt lat="46.56541" lon="0.32185">
        <ele>76.74</ele>
        <time>2023-06-07T19:18:20.389Z</time>
      </trkpt>
      <trkpt lat="46.56565" lon="0.32199">
        <ele>76.65</ele>
        <time>2023-06-07T19:18:21.707Z</time>
      </trkpt>
      <trkpt lat="46.56573" lon="0.32204">
        <ele>76.59</ele>
        <time>2023-06-07T19:18:23.026Z</time>
      </trkpt>
      <trkpt lat="46.56588" lon="0.32212">
        <ele>76.43</ele>
        <time>2023-06-07T19:18:24.348Z</time>
      </trkpt>
      <trkpt lat="46.56598" lon="0.32217">
        <ele>76.33</ele>
        <time>2023-06-07T19:18:25.671Z</time>
      </trkpt>
      <trkpt lat="46.56632" lon="0.32235">
        <ele>76.07</ele>
        <time>2023-06-07T19:18:27.000Z</time>
      </trkpt>
      <trkpt lat="46.56641" lon="0.3224">
        <ele>75.98</ele>
        <time>2023-06-07T19:18:28.331Z</time>
      </trkpt>
      <trkpt lat="46.56652" lon="0.32249">
        <ele>75.87</ele>
        <time>2023-06-07T19:18:29.664Z</time>
      </trkpt>
      <trkpt lat="46.56664" lon="0.32258">
        <ele>75.81</ele>
        <time>2023-06-07T19:18:30.999Z</time>
      </trkpt>
      <trkpt lat="46.56671" lon="0.32264">
        <ele>75.81</ele>
        <time>2023-06-07T19:18:32.335Z</time>
      </trkpt>
      <trkpt lat="46.56671" lon="0.32264">
        <ele>75.81</ele>
        <time>2023-06-07T19:18:33.671Z</time>
      </trkpt>
      <trkpt lat="46.56692" lon="0.3229">
        <ele>75.96</ele>
        <time>2023-06-07T19:18:35.011Z</time>
      </trkpt>
      <trkpt lat="46.56702" lon="0.32302">
        <ele>76</ele>
        <time>2023-06-07T19:18:36.354Z</time>
      </trkpt>
      <trkpt lat="46.56705" lon="0.32306">
        <ele>76</ele>
        <time>2023-06-07T19:18:37.697Z</time>
      </trkpt>
      <trkpt lat="46.56708" lon="0.32311">
        <ele>76</ele>
        <time>2023-06-07T19:18:39.041Z</time>
      </trkpt>
      <trkpt lat="46.56726" lon="0.32341">
        <ele>75.95</ele>
        <time>2023-06-07T19:18:40.389Z</time>
      </trkpt>
      <trkpt lat="46.56747" lon="0.32375">
        <ele>75.98</ele>
        <time>2023-06-07T19:18:41.742Z</time>
      </trkpt>
      <trkpt lat="46.5677" lon="0.32414">
        <ele>76.16</ele>
        <time>2023-06-07T19:18:43.101Z</time>
      </trkpt>
      <trkpt lat="46.56772" lon="0.32417">
        <ele>76.14</ele>
        <time>2023-06-07T19:18:44.460Z</time>
      </trkpt>
      <trkpt lat="46.56781" lon="0.32435">
        <ele>76.07</ele>
        <time>2023-06-07T19:18:45.822Z</time>
      </trkpt>
      <trkpt lat="46.56793" lon="0.32462">
        <ele>75.9</ele>
        <time>2023-06-07T19:18:47.187Z</time>
      </trkpt>
      <trkpt lat="46.56803" lon="0.32483">
        <ele>75.87</ele>
        <time>2023-06-07T19:18:48.555Z</time>
      </trkpt>
      <trkpt lat="46.56816" lon="0.32509">
        <ele>75.89</ele>
        <time>2023-06-07T19:18:49.927Z</time>
      </trkpt>
      <trkpt lat="46.56823" lon="0.32524">
        <ele>75.89</ele>
        <time>2023-06-07T19:18:51.301Z</time>
      </trkpt>
      <trkpt lat="46.56836" lon="0.32544">
        <ele>75.89</ele>
        <time>2023-06-07T19:18:52.678Z</time>
      </trkpt>
      <trkpt lat="46.56853" lon="0.32573">
        <ele>75.92</ele>
        <time>2023-06-07T19:18:54.059Z</time>
      </trkpt>
      <trkpt lat="46.56868" lon="0.32597">
        <ele>75.85</ele>
        <time>2023-06-07T19:18:55.444Z</time>
      </trkpt>
      <trkpt lat="46.56877" lon="0.32612">
        <ele>75.81</ele>
        <time>2023-06-07T19:18:56.831Z</time>
      </trkpt>
      <trkpt lat="46.56896" lon="0.3264">
        <ele>75.85</ele>
        <time>2023-06-07T19:18:58.222Z</time>
      </trkpt>
      <trkpt lat="46.56911" lon="0.32663">
        <ele>75.82</ele>
        <time>2023-06-07T19:18:59.617Z</time>
      </trkpt>
      <trkpt lat="46.56917" lon="0.32673">
        <ele>75.8</ele>
        <time>2023-06-07T19:19:01.013Z</time>
      </trkpt>
      <trkpt lat="46.56926" lon="0.32686">
        <ele>75.74</ele>
        <time>2023-06-07T19:19:02.411Z</time>
      </trkpt>
      <trkpt lat="46.56931" lon="0.32695">
        <ele>75.73</ele>
        <time>2023-06-07T19:19:03.811Z</time>
      </trkpt>
      <trkpt lat="46.56935" lon="0.32701">
        <ele>75.74</ele>
        <time>2023-06-07T19:19:05.211Z</time>
      </trkpt>
      <trkpt lat="46.56945" lon="0.32725">
        <ele>75.8</ele>
        <time>2023-06-07T19:19:06.614Z</time>
      </trkpt>
      <trkpt lat="46.56945" lon="0.32733">
        <ele>75.82</ele>
        <time>2023-06-07T19:19:08.018Z</time>
      </trkpt>
      <trkpt lat="46.56946" lon="0.32747">
        <ele>75.87</ele>
        <time>2023-06-07T19:19:09.424Z</time>
      </trkpt>
      <trkpt lat="46.56946" lon="0.32761">
        <ele>75.96</ele>
        <time>2023-06-07T19:19:10.831Z</time>
      </trkpt>
      <trkpt lat="46.56946" lon="0.32765">
        <ele>76</ele>
        <time>2023-06-07T19:19:12.239Z</time>
      </trkpt>
      <trkpt lat="46.56947" lon="0.32766">
        <ele>76.03</ele>
        <time>2023-06-07T19:19:13.647Z</time>
      </trkpt>
      <trkpt lat="46.56954" lon="0.32787">
        <ele>76.06</ele>
        <time>2023-06-07T19:19:15.058Z</time>
      </trkpt>
      <trkpt lat="46.56957" lon="0.32793">
        <ele>76.08</ele>
        <time>2023-06-07T19:19:16.469Z</time>
      </trkpt>
      <trkpt lat="46.56963" lon="0.32806">
        <ele>76.08</ele>
        <time>2023-06-07T19:19:17.882Z</time>
      </trkpt>
      <trkpt lat="46.56985" lon="0.32839">
        <ele>76.08</ele>
        <time>2023-06-07T19:19:19.300Z</time>
      </trkpt>
      <trkpt lat="46.56999" lon="0.32861">
        <ele>75.96</ele>
        <time>2023-06-07T19:19:20.722Z</time>
      </trkpt>
      <trkpt lat="46.57015" lon="0.32895">
        <ele>75.81</ele>
        <time>2023-06-07T19:19:22.148Z</time>
      </trkpt>
      <trkpt lat="46.57025" lon="0.32917">
        <ele>75.79</ele>
        <time>2023-06-07T19:19:23.577Z</time>
      </trkpt>
      <trkpt lat="46.57035" lon="0.32939">
        <ele>75.83</ele>
        <time>2023-06-07T19:19:25.009Z</time>
      </trkpt>
      <trkpt lat="46.57037" lon="0.32944">
        <ele>75.84</ele>
        <time>2023-06-07T19:19:26.441Z</time>
      </trkpt>
      <trkpt lat="46.57045" lon="0.32967">
        <ele>75.94</ele>
        <time>2023-06-07T19:19:27.876Z</time>
      </trkpt>
      <trkpt lat="46.5705" lon="0.32978">
        <ele>76.01</ele>
        <time>2023-06-07T19:19:29.313Z</time>
      </trkpt>
      <trkpt lat="46.57053" lon="0.32987">
        <ele>76.08</ele>
        <time>2023-06-07T19:19:30.751Z</time>
      </trkpt>
      <trkpt lat="46.57059" lon="0.33008">
        <ele>76.24</ele>
        <time>2023-06-07T19:19:32.191Z</time>
      </trkpt>
      <trkpt lat="46.57064" lon="0.33026">
        <ele>76.32</ele>
        <time>2023-06-07T19:19:33.634Z</time>
      </trkpt>
      <trkpt lat="46.57067" lon="0.33038">
        <ele>76.34</ele>
        <time>2023-06-07T19:19:35.078Z</time>
      </trkpt>
      <trkpt lat="46.57071" lon="0.3305">
        <ele>76.33</ele>
        <time>2023-06-07T19:19:36.523Z</time>
      </trkpt>
      <trkpt lat="46.57084" lon="0.33098">
        <ele>76.24</ele>
        <time>2023-06-07T19:19:37.974Z</time>
      </trkpt>
      <trkpt lat="46.57088" lon="0.3311">
        <ele>76.25</ele>
        <time>2023-06-07T19:19:39.427Z</time>
      </trkpt>
      <trkpt lat="46.57093" lon="0.33128">
        <ele>76.3</ele>
        <time>2023-06-07T19:19:40.882Z</time>
      </trkpt>
      <trkpt lat="46.57094" lon="0.33132">
        <ele>76.32</ele>
        <time>2023-06-07T19:19:42.337Z</time>
      </trkpt>
      <trkpt lat="46.57101" lon="0.33161">
        <ele>76.48</ele>
        <time>2023-06-07T19:19:43.796Z</time>
      </trkpt>
      <trkpt lat="46.57108" lon="0.33185">
        <ele>76.7</ele>
        <time>2023-06-07T19:19:45.257Z</time>
      </trkpt>
      <trkpt lat="46.57112" lon="0.33203">
        <ele>76.8</ele>
        <time>2023-06-07T19:19:46.721Z</time>
      </trkpt>
      <trkpt lat="46.57115" lon="0.33215">
        <ele>76.84</ele>
        <time>2023-06-07T19:19:48.186Z</time>
      </trkpt>
      <trkpt lat="46.57123" lon="0.33245">
        <ele>76.84</ele>
        <time>2023-06-07T19:19:49.655Z</time>
      </trkpt>
      <trkpt lat="46.57131" lon="0.33275">
        <ele>76.91</ele>
        <time>2023-06-07T19:19:51.127Z</time>
      </trkpt>
      <trkpt lat="46.57135" lon="0.33294">
        <ele>76.99</ele>
        <time>2023-06-07T19:19:52.601Z</time>
      </trkpt>
      <trkpt lat="46.57146" lon="0.33336">
        <ele>77.23</ele>
        <time>2023-06-07T19:19:54.080Z</time>
      </trkpt>
      <trkpt lat="46.57151" lon="0.33354">
        <ele>77.35</ele>
        <time>2023-06-07T19:19:55.561Z</time>
      </trkpt>
      <trkpt lat="46.57155" lon="0.33372">
        <ele>77.5</ele>
        <time>2023-06-07T19:19:57.044Z</time>
      </trkpt>
      <trkpt lat="46.57158" lon="0.33384">
        <ele>77.56</ele>
        <time>2023-06-07T19:19:58.529Z</time>
      </trkpt>
      <trkpt lat="46.57163" lon="0.33402">
        <ele>77.62</ele>
        <time>2023-06-07T19:20:00.016Z</time>
      </trkpt>
      <trkpt lat="46.57168" lon="0.3342">
        <ele>77.71</ele>
        <time>2023-06-07T19:20:01.505Z</time>
      </trkpt>
      <trkpt lat="46.57171" lon="0.33432">
        <ele>77.75</ele>
        <time>2023-06-07T19:20:02.996Z</time>
      </trkpt>
      <trkpt lat="46.57177" lon="0.33456">
        <ele>77.75</ele>
        <time>2023-06-07T19:20:04.489Z</time>
      </trkpt>
      <trkpt lat="46.57189" lon="0.33504">
        <ele>77.4</ele>
        <time>2023-06-07T19:20:05.988Z</time>
      </trkpt>
      <trkpt lat="46.57205" lon="0.33564">
        <ele>77.12</ele>
        <time>2023-06-07T19:20:07.494Z</time>
      </trkpt>
      <trkpt lat="46.57214" lon="0.336">
        <ele>77.1</ele>
        <time>2023-06-07T19:20:09.004Z</time>
      </trkpt>
      <trkpt lat="46.57226" lon="0.33648">
        <ele>76.99</ele>
        <time>2023-06-07T19:20:10.520Z</time>
      </trkpt>
      <trkpt lat="46.57239" lon="0.33696">
        <ele>76.93</ele>
        <time>2023-06-07T19:20:12.042Z</time>
      </trkpt>
      <trkpt lat="46.57239" lon="0.33698">
        <ele>76.85</ele>
        <time>2023-06-07T19:20:13.564Z</time>
      </trkpt>
      <trkpt lat="46.5724" lon="0.33702">
        <ele>76.8</ele>
        <time>2023-06-07T19:20:15.086Z</time>
      </trkpt>
      <trkpt lat="46.57259" lon="0.337">
        <ele>76.46</ele>
        <time>2023-06-07T19:20:16.611Z</time>
      </trkpt>
      <trkpt lat="46.57276" lon="0.33698">
        <ele>76.21</ele>
        <time>2023-06-07T19:20:18.139Z</time>
      </trkpt>
      <trkpt lat="46.57301" lon="0.33695">
        <ele>75.95</ele>
        <time>2023-06-07T19:20:19.671Z</time>
      </trkpt>
      <trkpt lat="46.57309" lon="0.33694">
        <ele>75.85</ele>
        <time>2023-06-07T19:20:21.204Z</time>
      </trkpt>
      <trkpt lat="46.5733" lon="0.33691">
        <ele>75.75</ele>
        <time>2023-06-07T19:20:22.741Z</time>
      </trkpt>
      <trkpt lat="46.5734" lon="0.3369">
        <ele>75.71</ele>
        <time>2023-06-07T19:20:24.279Z</time>
      </trkpt>
      <trkpt lat="46.57341" lon="0.33693">
        <ele>75.71</ele>
        <time>2023-06-07T19:20:25.818Z</time>
      </trkpt>
      <trkpt lat="46.57348" lon="0.33709">
        <ele>75.77</ele>
        <time>2023-06-07T19:20:27.359Z</time>
      </trkpt>
      <trkpt lat="46.57354" lon="0.33724">
        <ele>75.88</ele>
        <time>2023-06-07T19:20:28.902Z</time>
      </trkpt>
      <trkpt lat="46.57365" lon="0.3375">
        <ele>76.26</ele>
        <time>2023-06-07T19:20:30.448Z</time>
      </trkpt>
      <trkpt lat="46.57369" lon="0.33761">
        <ele>76.39</ele>
        <time>2023-06-07T19:20:31.996Z</time>
      </trkpt>
      <trkpt lat="46.57374" lon="0.33771">
        <ele>76.49</ele>
        <time>2023-06-07T19:20:33.545Z</time>
      </trkpt>
      <trkpt lat="46.5738" lon="0.33787">
        <ele>76.58</ele>
        <time>2023-06-07T19:20:35.096Z</time>
      </trkpt>
      <trkpt lat="46.57382" lon="0.33791">
        <ele>76.64</ele>
        <time>2023-06-07T19:20:36.647Z</time>
      </trkpt>
      <trkpt lat="46.57376" lon="0.33797">
        <ele>76.79</ele>
        <time>2023-06-07T19:20:38.200Z</time>
      </trkpt>
      <trkpt lat="46.57373" lon="0.33799">
        <ele>76.82</ele>
        <time>2023-06-07T19:20:39.753Z</time>
      </trkpt>
      <trkpt lat="46.5737" lon="0.33822">
        <ele>76.99</ele>
        <time>2023-06-07T19:20:41.309Z</time>
      </trkpt>
      <trkpt lat="46.57367" lon="0.33844">
        <ele>77.01</ele>
        <time>2023-06-07T19:20:42.867Z</time>
      </trkpt>
      <trkpt lat="46.57368" lon="0.33847">
        <ele>77.02</ele>
        <time>2023-06-07T19:20:44.425Z</time>
      </trkpt>
      <trkpt lat="46.5738" lon="0.33881">
        <ele>77.02</ele>
        <time>2023-06-07T19:20:45.988Z</time>
      </trkpt>
      <trkpt lat="46.57388" lon="0.33903">
        <ele>76.96</ele>
        <time>2023-06-07T19:20:47.554Z</time>
      </trkpt>
      <trkpt lat="46.57412" lon="0.33971">
        <ele>76.93</ele>
        <time>2023-06-07T19:20:49.128Z</time>
      </trkpt>
      <trkpt lat="46.57413" lon="0.33975">
        <ele>76.92</ele>
        <time>2023-06-07T19:20:50.702Z</time>
      </trkpt>
      <trkpt lat="46.57422" lon="0.33969">
        <ele>76.89</ele>
        <time>2023-06-07T19:20:52.278Z</time>
      </trkpt>
      <trkpt lat="46.57439" lon="0.33957">
        <ele>76.86</ele>
        <time>2023-06-07T19:20:53.857Z</time>
      </trkpt>
      <trkpt lat="46.57458" lon="0.33944">
        <ele>77.07</ele>
        <time>2023-06-07T19:20:55.439Z</time>
      </trkpt>
      <trkpt lat="46.57461" lon="0.33942">
        <ele>77.11</ele>
        <time>2023-06-07T19:20:57.022Z</time>
      </trkpt>
      <trkpt lat="46.5747" lon="0.33933">
        <ele>77.24</ele>
        <time>2023-06-07T19:20:58.607Z</time>
      </trkpt>
      <trkpt lat="46.5748" lon="0.33924">
        <ele>77.38</ele>
        <time>2023-06-07T19:21:00.194Z</time>
      </trkpt>
      <trkpt lat="46.57482" lon="0.33922">
        <ele>77.44</ele>
        <time>2023-06-07T19:21:01.781Z</time>
      </trkpt>
      <trkpt lat="46.57485" lon="0.3392">
        <ele>77.36</ele>
        <time>2023-06-07T19:21:03.368Z</time>
      </trkpt>
      <trkpt lat="46.57488" lon="0.33927">
        <ele>77.21</ele>
        <time>2023-06-07T19:21:04.956Z</time>
      </trkpt>
      <trkpt lat="46.57494" lon="0.33937">
        <ele>76.95</ele>
        <time>2023-06-07T19:21:06.546Z</time>
      </trkpt>
      <trkpt lat="46.57504" lon="0.33957">
        <ele>76.36</ele>
        <time>2023-06-07T19:21:08.139Z</time>
      </trkpt>
      <trkpt lat="46.57506" lon="0.33961">
        <ele>76.27</ele>
        <time>2023-06-07T19:21:09.732Z</time>
      </trkpt>
      <trkpt lat="46.57509" lon="0.33968">
        <ele>76.1</ele>
        <time>2023-06-07T19:21:11.326Z</time>
      </trkpt>
      <trkpt lat="46.57514" lon="0.33979">
        <ele>75.89</ele>
        <time>2023-06-07T19:21:12.921Z</time>
      </trkpt>
      <trkpt lat="46.57517" lon="0.33984">
        <ele>75.81</ele>
        <time>2023-06-07T19:21:14.517Z</time>
      </trkpt>
      <trkpt lat="46.57522" lon="0.33995">
        <ele>75.71</ele>
        <time>2023-06-07T19:21:16.115Z</time>
      </trkpt>
      <trkpt lat="46.57527" lon="0.34006">
        <ele>75.67</ele>
        <time>2023-06-07T19:21:17.714Z</time>
      </trkpt>
      <trkpt lat="46.57541" lon="0.34039">
        <ele>75.67</ele>
        <time>2023-06-07T19:21:19.317Z</time>
      </trkpt>
      <trkpt lat="46.57543" lon="0.34042">
        <ele>75.65</ele>
        <time>2023-06-07T19:21:20.921Z</time>
      </trkpt>
      <trkpt lat="46.57559" lon="0.3407">
        <ele>75.56</ele>
        <time>2023-06-07T19:21:22.529Z</time>
      </trkpt>
      <trkpt lat="46.57559" lon="0.3407">
        <ele>75.56</ele>
        <time>2023-06-07T19:21:24.137Z</time>
      </trkpt>
      <trkpt lat="46.57566" lon="0.34085">
        <ele>75.57</ele>
        <time>2023-06-07T19:21:25.747Z</time>
      </trkpt>
      <trkpt lat="46.57572" lon="0.34097">
        <ele>75.6</ele>
        <time>2023-06-07T19:21:27.358Z</time>
      </trkpt>
      <trkpt lat="46.57588" lon="0.34134">
        <ele>75.71</ele>
        <time>2023-06-07T19:21:28.974Z</time>
      </trkpt>
      <trkpt lat="46.57596" lon="0.34153">
        <ele>75.7</ele>
        <time>2023-06-07T19:21:30.593Z</time>
      </trkpt>
      <trkpt lat="46.57603" lon="0.34174">
        <ele>75.7</ele>
        <time>2023-06-07T19:21:32.214Z</time>
      </trkpt>
      <trkpt lat="46.57608" lon="0.34185">
        <ele>75.68</ele>
        <time>2023-06-07T19:21:33.837Z</time>
      </trkpt>
      <trkpt lat="46.57612" lon="0.34197">
        <ele>75.63</ele>
        <time>2023-06-07T19:21:35.461Z</time>
      </trkpt>
      <trkpt lat="46.57615" lon="0.34209">
        <ele>75.6</ele>
        <time>2023-06-07T19:21:37.087Z</time>
      </trkpt>
      <trkpt lat="46.57624" lon="0.34245">
        <ele>75.53</ele>
        <time>2023-06-07T19:21:38.717Z</time>
      </trkpt>
      <trkpt lat="46.57629" lon="0.34263">
        <ele>75.44</ele>
        <time>2023-06-07T19:21:40.349Z</time>
      </trkpt>
      <trkpt lat="46.5763" lon="0.3427">
        <ele>75.41</ele>
        <time>2023-06-07T19:21:41.982Z</time>
      </trkpt>
      <trkpt lat="46.57632" lon="0.34283">
        <ele>75.37</ele>
        <time>2023-06-07T19:21:43.616Z</time>
      </trkpt>
      <trkpt lat="46.57639" lon="0.34334">
        <ele>75.34</ele>
        <time>2023-06-07T19:21:45.256Z</time>
      </trkpt>
      <trkpt lat="46.57646" lon="0.34378">
        <ele>75.47</ele>
        <time>2023-06-07T19:21:46.901Z</time>
      </trkpt>
      <trkpt lat="46.57647" lon="0.34386">
        <ele>75.47</ele>
        <time>2023-06-07T19:21:48.547Z</time>
      </trkpt>
      <trkpt lat="46.57648" lon="0.34408">
        <ele>75.48</ele>
        <time>2023-06-07T19:21:50.195Z</time>
      </trkpt>
      <trkpt lat="46.57645" lon="0.34423">
        <ele>75.5</ele>
        <time>2023-06-07T19:21:51.845Z</time>
      </trkpt>
      <trkpt lat="46.57643" lon="0.34436">
        <ele>75.53</ele>
        <time>2023-06-07T19:21:53.496Z</time>
      </trkpt>
      <trkpt lat="46.57634" lon="0.34485">
        <ele>75.81</ele>
        <time>2023-06-07T19:21:55.153Z</time>
      </trkpt>
      <trkpt lat="46.57629" lon="0.34497">
        <ele>75.89</ele>
        <time>2023-06-07T19:21:56.812Z</time>
      </trkpt>
      <trkpt lat="46.57628" lon="0.34501">
        <ele>75.91</ele>
        <time>2023-06-07T19:21:58.471Z</time>
      </trkpt>
      <trkpt lat="46.57623" lon="0.34502">
        <ele>75.94</ele>
        <time>2023-06-07T19:22:00.131Z</time>
      </trkpt>
      <trkpt lat="46.57618" lon="0.34511">
        <ele>76</ele>
        <time>2023-06-07T19:22:01.792Z</time>
      </trkpt>
      <trkpt lat="46.5761" lon="0.34524">
        <ele>76.04</ele>
        <time>2023-06-07T19:22:03.455Z</time>
      </trkpt>
      <trkpt lat="46.57608" lon="0.34528">
        <ele>76.08</ele>
        <time>2023-06-07T19:22:05.119Z</time>
      </trkpt>
      <trkpt lat="46.57609" lon="0.3453">
        <ele>76.1</ele>
        <time>2023-06-07T19:22:06.783Z</time>
      </trkpt>
      <trkpt lat="46.5761" lon="0.34534">
        <ele>76.09</ele>
        <time>2023-06-07T19:22:08.447Z</time>
      </trkpt>
      <trkpt lat="46.57601" lon="0.34539">
        <ele>76.07</ele>
        <time>2023-06-07T19:22:10.113Z</time>
      </trkpt>
      <trkpt lat="46.57599" lon="0.34543">
        <ele>76.07</ele>
        <time>2023-06-07T19:22:11.780Z</time>
      </trkpt>
      <trkpt lat="46.57596" lon="0.34547">
        <ele>76.08</ele>
        <time>2023-06-07T19:22:13.447Z</time>
      </trkpt>
      <trkpt lat="46.57582" lon="0.34555">
        <ele>76.13</ele>
        <time>2023-06-07T19:22:15.117Z</time>
      </trkpt>
      <trkpt lat="46.57573" lon="0.34559">
        <ele>76.17</ele>
        <time>2023-06-07T19:22:16.788Z</time>
      </trkpt>
      <trkpt lat="46.5757" lon="0.34561">
        <ele>76.19</ele>
        <time>2023-06-07T19:22:18.460Z</time>
      </trkpt>
      <trkpt lat="46.57557" lon="0.3457">
        <ele>76.29</ele>
        <time>2023-06-07T19:22:20.134Z</time>
      </trkpt>
      <trkpt lat="46.57553" lon="0.34573">
        <ele>76.34</ele>
        <time>2023-06-07T19:22:21.809Z</time>
      </trkpt>
      <trkpt lat="46.57534" lon="0.34585">
        <ele>76.37</ele>
        <time>2023-06-07T19:22:23.487Z</time>
      </trkpt>
      <trkpt lat="46.5751" lon="0.34601">
        <ele>76.36</ele>
        <time>2023-06-07T19:22:25.169Z</time>
      </trkpt>
      <trkpt lat="46.57501" lon="0.34607">
        <ele>76.38</ele>
        <time>2023-06-07T19:22:26.853Z</time>
      </trkpt>
      <trkpt lat="46.57479" lon="0.34622">
        <ele>76.53</ele>
        <time>2023-06-07T19:22:28.541Z</time>
      </trkpt>
      <trkpt lat="46.57476" lon="0.34624">
        <ele>76.56</ele>
        <time>2023-06-07T19:22:30.229Z</time>
      </trkpt>
    </trkseg>
  </trk>
</gpx>